<?xml version="1.0" encoding="UTF-8"?>
<gpx version="1.1" creator="https://www.youtrack.es" xsi:schemaLocation="http://www.topografix.com/GPX/1/1 http://www.topografix.com/GPX/1/1/gpx.xsd http://www.garmin.com/xmlschemas/GpxExtensions/v3 http://www.garmin.com/xmlschemas/GpxExtensionsv3.xsd http://www.garmin.com/xmlschemas/TrackPointExtension/v1 http://www.garmin.com/xmlschemas/TrackPointExtensionv1.xsd" xmlns:gpxtpx="http://www.garmin.com/xmlschemas/TrackPointExtension/v1" xmlns:gpxx="http://www.garmin.com/xmlschemas/GpxExtensions/v3" xmlns:xsi="http://www.w3.org/2001/XMLSchema-instance">
  <metadata>
    <link href="https://www.youtrack.es">
      <text>YouTrack.es</text>
    </link>
    <time>2026-05-08T14:13:50Z</time>
  </metadata>
  <trk>
    <src>https://www.youtrack.es</src>
    <link href="https://www.youtrack.es/ruta/2620-gsgrjrtjjsvccfgsdgsdgfjhghdfgsdhrthtrh-http-google-com">
      <text>YouTrack.es</text>
    </link>
    <trkseg>
      <trkpt lat="36.540485" lon="-5.388224">
        <ele>244.14</ele>
        <time>2007-05-09T06:00:00Z</time>
      </trkpt>
      <trkpt lat="36.541231" lon="-5.387612">
        <ele>253.865</ele>
        <time>2007-05-09T06:01:05Z</time>
      </trkpt>
      <trkpt lat="36.540974" lon="-5.387043">
        <ele>255.483</ele>
        <time>2007-05-09T06:01:59Z</time>
      </trkpt>
      <trkpt lat="36.541625" lon="-5.386949">
        <ele>264.278</ele>
        <time>2007-05-09T06:02:54Z</time>
      </trkpt>
      <trkpt lat="36.542051" lon="-5.38607">
        <ele>270.278</ele>
        <time>2007-05-09T06:03:07Z</time>
      </trkpt>
      <trkpt lat="36.54221" lon="-5.386107">
        <ele>276.487</ele>
        <time>2007-05-09T06:03:45Z</time>
      </trkpt>
      <trkpt lat="36.542124" lon="-5.387287">
        <ele>275.878</ele>
        <time>2007-05-09T06:04:45Z</time>
      </trkpt>
      <trkpt lat="36.542352" lon="-5.387339">
        <ele>281.934</ele>
        <time>2007-05-09T06:04:56Z</time>
      </trkpt>
      <trkpt lat="36.542574" lon="-5.386994">
        <ele>287.262</ele>
        <time>2007-05-09T06:05:59Z</time>
      </trkpt>
      <trkpt lat="36.542517" lon="-5.38659">
        <ele>285.947</ele>
        <time>2007-05-09T06:06:31Z</time>
      </trkpt>
      <trkpt lat="36.542589" lon="-5.386261">
        <ele>287.829</ele>
        <time>2007-05-09T06:06:46Z</time>
      </trkpt>
      <trkpt lat="36.542991" lon="-5.386032">
        <ele>290.913</ele>
        <time>2007-05-09T06:07:15Z</time>
      </trkpt>
      <trkpt lat="36.54316" lon="-5.386088">
        <ele>294.527</ele>
        <time>2007-05-09T06:08:21Z</time>
      </trkpt>
      <trkpt lat="36.543179" lon="-5.386905">
        <ele>299.319</ele>
        <time>2007-05-09T06:08:34Z</time>
      </trkpt>
      <trkpt lat="36.543328" lon="-5.386976">
        <ele>303.448</ele>
        <time>2007-05-09T06:08:45Z</time>
      </trkpt>
      <trkpt lat="36.543445" lon="-5.386671">
        <ele>302.465</ele>
        <time>2007-05-09T06:09:10Z</time>
      </trkpt>
      <trkpt lat="36.543649" lon="-5.386528">
        <ele>305.048</ele>
        <time>2007-05-09T06:09:35Z</time>
      </trkpt>
      <trkpt lat="36.543676" lon="-5.386097">
        <ele>302.674</ele>
        <time>2007-05-09T06:09:56Z</time>
      </trkpt>
      <trkpt lat="36.543824" lon="-5.385956">
        <ele>304.597</ele>
        <time>2007-05-09T06:10:18Z</time>
      </trkpt>
      <trkpt lat="36.544248" lon="-5.386655">
        <ele>314.033</ele>
        <time>2007-05-09T06:10:55Z</time>
      </trkpt>
      <trkpt lat="36.545431" lon="-5.387108">
        <ele>334.134</ele>
        <time>2007-05-09T06:11:16Z</time>
      </trkpt>
      <trkpt lat="36.545986" lon="-5.387171">
        <ele>340.645</ele>
        <time>2007-05-09T06:11:37Z</time>
      </trkpt>
      <trkpt lat="36.546263" lon="-5.386783">
        <ele>342.293</ele>
        <time>2007-05-09T06:12:10Z</time>
      </trkpt>
      <trkpt lat="36.54629" lon="-5.385848">
        <ele>343.792</ele>
        <time>2007-05-09T06:13:09Z</time>
      </trkpt>
      <trkpt lat="36.546594" lon="-5.385285">
        <ele>347.464</ele>
        <time>2007-05-09T06:14:11Z</time>
      </trkpt>
      <trkpt lat="36.546504" lon="-5.384704">
        <ele>348.541</ele>
        <time>2007-05-09T06:14:37Z</time>
      </trkpt>
      <trkpt lat="36.546916" lon="-5.384137">
        <ele>358.471</ele>
        <time>2007-05-09T06:14:55Z</time>
      </trkpt>
      <trkpt lat="36.54729" lon="-5.382293">
        <ele>356.984</ele>
        <time>2007-05-09T06:15:43Z</time>
      </trkpt>
      <trkpt lat="36.547573" lon="-5.38208">
        <ele>361.705</ele>
        <time>2007-05-09T06:15:56Z</time>
      </trkpt>
      <trkpt lat="36.547636" lon="-5.381546">
        <ele>363.439</ele>
        <time>2007-05-09T06:16:31Z</time>
      </trkpt>
      <trkpt lat="36.548291" lon="-5.380707">
        <ele>373.478</ele>
        <time>2007-05-09T06:16:45Z</time>
      </trkpt>
      <trkpt lat="36.54861" lon="-5.379944">
        <ele>376.778</ele>
        <time>2007-05-09T06:16:58Z</time>
      </trkpt>
      <trkpt lat="36.548989" lon="-5.379836">
        <ele>386.342</ele>
        <time>2007-05-09T06:17:15Z</time>
      </trkpt>
      <trkpt lat="36.549349" lon="-5.381279">
        <ele>394.2</ele>
        <time>2007-05-09T06:18:05Z</time>
      </trkpt>
      <trkpt lat="36.548694" lon="-5.381778">
        <ele>386.249</ele>
        <time>2007-05-09T06:18:54Z</time>
      </trkpt>
      <trkpt lat="36.548581" lon="-5.382093">
        <ele>385.036</ele>
        <time>2007-05-09T06:19:17Z</time>
      </trkpt>
      <trkpt lat="36.548716" lon="-5.382977">
        <ele>392.845</ele>
        <time>2007-05-09T06:19:36Z</time>
      </trkpt>
      <trkpt lat="36.548374" lon="-5.383385">
        <ele>388.799</ele>
        <time>2007-05-09T06:19:55Z</time>
      </trkpt>
      <trkpt lat="36.548673" lon="-5.385122">
        <ele>397.901</ele>
        <time>2007-05-09T06:20:28Z</time>
      </trkpt>
      <trkpt lat="36.549224" lon="-5.386005">
        <ele>411.2690000000001</ele>
        <time>2007-05-09T06:20:54Z</time>
      </trkpt>
      <trkpt lat="36.548505" lon="-5.387208">
        <ele>412.802</ele>
        <time>2007-05-09T06:21:08Z</time>
      </trkpt>
      <trkpt lat="36.547967" lon="-5.389658">
        <ele>412</ele>
        <time>2007-05-09T06:21:42Z</time>
      </trkpt>
      <trkpt lat="36.548142" lon="-5.389773">
        <ele>415.5849999999999</ele>
        <time>2007-05-09T06:21:56Z</time>
      </trkpt>
      <trkpt lat="36.549306" lon="-5.389899">
        <ele>426.828</ele>
        <time>2007-05-09T06:22:36Z</time>
      </trkpt>
      <trkpt lat="36.549506" lon="-5.3902">
        <ele>429.551</ele>
        <time>2007-05-09T06:22:57Z</time>
      </trkpt>
      <trkpt lat="36.548713" lon="-5.391091">
        <ele>428.382</ele>
        <time>2007-05-09T06:23:42Z</time>
      </trkpt>
      <trkpt lat="36.547966" lon="-5.391482">
        <ele>424.418</ele>
        <time>2007-05-09T06:24:07Z</time>
      </trkpt>
      <trkpt lat="36.547271" lon="-5.392602">
        <ele>433.608</ele>
        <time>2007-05-09T06:24:27Z</time>
      </trkpt>
      <trkpt lat="36.547019" lon="-5.393436">
        <ele>441.3319999999999</ele>
        <time>2007-05-09T06:25:08Z</time>
      </trkpt>
      <trkpt lat="36.546578" lon="-5.394201">
        <ele>440.107</ele>
        <time>2007-05-09T06:25:23Z</time>
      </trkpt>
      <trkpt lat="36.54624" lon="-5.395255">
        <ele>442.602</ele>
        <time>2007-05-09T06:25:54Z</time>
      </trkpt>
      <trkpt lat="36.545636" lon="-5.395859">
        <ele>442.8440000000001</ele>
        <time>2007-05-09T06:26:05Z</time>
      </trkpt>
      <trkpt lat="36.545488" lon="-5.396391">
        <ele>446.355</ele>
        <time>2007-05-09T06:26:29Z</time>
      </trkpt>
      <trkpt lat="36.54526" lon="-5.396658">
        <ele>441.1709999999999</ele>
        <time>2007-05-09T06:26:56Z</time>
      </trkpt>
      <trkpt lat="36.545031" lon="-5.397246">
        <ele>447.5470000000001</ele>
        <time>2007-05-09T06:27:05Z</time>
      </trkpt>
      <trkpt lat="36.54456" lon="-5.397601">
        <ele>437.9089999999999</ele>
        <time>2007-05-09T06:27:36Z</time>
      </trkpt>
      <trkpt lat="36.544472" lon="-5.39822">
        <ele>442.9329999999999</ele>
        <time>2007-05-09T06:27:48Z</time>
      </trkpt>
      <trkpt lat="36.544599" lon="-5.398656">
        <ele>444.733</ele>
        <time>2007-05-09T06:28:08Z</time>
      </trkpt>
      <trkpt lat="36.544475" lon="-5.400173">
        <ele>437.869</ele>
        <time>2007-05-09T06:28:16Z</time>
      </trkpt>
      <trkpt lat="36.54485" lon="-5.400627">
        <ele>444.288</ele>
        <time>2007-05-09T06:29:12Z</time>
      </trkpt>
      <trkpt lat="36.545204" lon="-5.401841">
        <ele>449.7239999999999</ele>
        <time>2007-05-09T06:29:23Z</time>
      </trkpt>
      <trkpt lat="36.545269" lon="-5.403123">
        <ele>444.6329999999999</ele>
        <time>2007-05-09T06:29:46Z</time>
      </trkpt>
      <trkpt lat="36.545592" lon="-5.404148">
        <ele>451.907</ele>
        <time>2007-05-09T06:30:15Z</time>
      </trkpt>
      <trkpt lat="36.545364" lon="-5.404769">
        <ele>447.242</ele>
        <time>2007-05-09T06:30:53Z</time>
      </trkpt>
      <trkpt lat="36.545614" lon="-5.405475">
        <ele>461.356</ele>
        <time>2007-05-09T06:31:17Z</time>
      </trkpt>
      <trkpt lat="36.545606" lon="-5.406182">
        <ele>465.284</ele>
        <time>2007-05-09T06:31:48Z</time>
      </trkpt>
      <trkpt lat="36.54552" lon="-5.406951">
        <ele>471.8799999999999</ele>
        <time>2007-05-09T06:32:19Z</time>
      </trkpt>
      <trkpt lat="36.544884" lon="-5.407471">
        <ele>475.9380000000001</ele>
        <time>2007-05-09T06:32:27Z</time>
      </trkpt>
      <trkpt lat="36.544282" lon="-5.407702">
        <ele>472.7389999999999</ele>
        <time>2007-05-09T06:33:04Z</time>
      </trkpt>
      <trkpt lat="36.544079" lon="-5.408112">
        <ele>479.663</ele>
        <time>2007-05-09T06:33:41Z</time>
      </trkpt>
      <trkpt lat="36.543602" lon="-5.40802">
        <ele>476.608</ele>
        <time>2007-05-09T06:34:09Z</time>
      </trkpt>
      <trkpt lat="36.543445" lon="-5.408324">
        <ele>480.866</ele>
        <time>2007-05-09T06:34:33Z</time>
      </trkpt>
      <trkpt lat="36.542977" lon="-5.408306">
        <ele>482.132</ele>
        <time>2007-05-09T06:34:57Z</time>
      </trkpt>
      <trkpt lat="36.542389" lon="-5.407859">
        <ele>479.362</ele>
        <time>2007-05-09T06:35:20Z</time>
      </trkpt>
      <trkpt lat="36.541408" lon="-5.407999">
        <ele>477.663</ele>
        <time>2007-05-09T06:35:36Z</time>
      </trkpt>
      <trkpt lat="36.540759" lon="-5.409256">
        <ele>483.3809999999999</ele>
        <time>2007-05-09T06:35:49Z</time>
      </trkpt>
      <trkpt lat="36.540818" lon="-5.409849">
        <ele>496.161</ele>
        <time>2007-05-09T06:36:13Z</time>
      </trkpt>
      <trkpt lat="36.540314" lon="-5.410183">
        <ele>485.212</ele>
        <time>2007-05-09T06:36:24Z</time>
      </trkpt>
      <trkpt lat="36.539958" lon="-5.411365">
        <ele>496.363</ele>
        <time>2007-05-09T06:36:59Z</time>
      </trkpt>
      <trkpt lat="36.540102" lon="-5.41184">
        <ele>503.425</ele>
        <time>2007-05-09T06:37:34Z</time>
      </trkpt>
      <trkpt lat="36.539549" lon="-5.412905">
        <ele>498.474</ele>
        <time>2007-05-09T06:38:20Z</time>
      </trkpt>
      <trkpt lat="36.539202" lon="-5.413981">
        <ele>510.755</ele>
        <time>2007-05-09T06:38:47Z</time>
      </trkpt>
      <trkpt lat="36.538474" lon="-5.414663">
        <ele>504.9599999999999</ele>
        <time>2007-05-09T06:39:25Z</time>
      </trkpt>
      <trkpt lat="36.538346" lon="-5.415299">
        <ele>516.896</ele>
        <time>2007-05-09T06:39:46Z</time>
      </trkpt>
      <trkpt lat="36.537978" lon="-5.41542">
        <ele>513.205</ele>
        <time>2007-05-09T06:40:02Z</time>
      </trkpt>
      <trkpt lat="36.53783" lon="-5.415905">
        <ele>520.627</ele>
        <time>2007-05-09T06:40:16Z</time>
      </trkpt>
      <trkpt lat="36.537057" lon="-5.415988">
        <ele>512.706</ele>
        <time>2007-05-09T06:40:53Z</time>
      </trkpt>
      <trkpt lat="36.536762" lon="-5.416608">
        <ele>528.02</ele>
        <time>2007-05-09T06:41:22Z</time>
      </trkpt>
      <trkpt lat="36.535683" lon="-5.416894">
        <ele>514.904</ele>
        <time>2007-05-09T06:41:58Z</time>
      </trkpt>
      <trkpt lat="36.53551" lon="-5.417147">
        <ele>511.8740000000001</ele>
        <time>2007-05-09T06:42:26Z</time>
      </trkpt>
      <trkpt lat="36.535743" lon="-5.41807">
        <ele>530.92</ele>
        <time>2007-05-09T06:42:52Z</time>
      </trkpt>
      <trkpt lat="36.535029" lon="-5.419245">
        <ele>536.001</ele>
        <time>2007-05-09T06:43:15Z</time>
      </trkpt>
      <trkpt lat="36.534618" lon="-5.419215">
        <ele>525.608</ele>
        <time>2007-05-09T06:43:34Z</time>
      </trkpt>
      <trkpt lat="36.534224" lon="-5.419592">
        <ele>524.632</ele>
        <time>2007-05-09T06:44:17Z</time>
      </trkpt>
      <trkpt lat="36.534537" lon="-5.420922">
        <ele>525.268</ele>
        <time>2007-05-09T06:44:36Z</time>
      </trkpt>
      <trkpt lat="36.535167" lon="-5.421673">
        <ele>526.008</ele>
        <time>2007-05-09T06:45:19Z</time>
      </trkpt>
      <trkpt lat="36.536426" lon="-5.422757">
        <ele>528.149</ele>
        <time>2007-05-09T06:45:33Z</time>
      </trkpt>
      <trkpt lat="36.53735" lon="-5.424141">
        <ele>516.559</ele>
        <time>2007-05-09T06:46:19Z</time>
      </trkpt>
      <trkpt lat="36.537673" lon="-5.423893">
        <ele>522.995</ele>
        <time>2007-05-09T06:46:29Z</time>
      </trkpt>
      <trkpt lat="36.538753" lon="-5.423595">
        <ele>522.478</ele>
        <time>2007-05-09T06:46:58Z</time>
      </trkpt>
      <trkpt lat="36.539024" lon="-5.423092">
        <ele>534.384</ele>
        <time>2007-05-09T06:47:11Z</time>
      </trkpt>
      <trkpt lat="36.540078" lon="-5.422984">
        <ele>535.684</ele>
        <time>2007-05-09T06:47:29Z</time>
      </trkpt>
      <trkpt lat="36.540433" lon="-5.422769">
        <ele>539.694</ele>
        <time>2007-05-09T06:47:55Z</time>
      </trkpt>
      <trkpt lat="36.540969" lon="-5.423108">
        <ele>539.359</ele>
        <time>2007-05-09T06:48:12Z</time>
      </trkpt>
      <trkpt lat="36.541513" lon="-5.423919">
        <ele>544.019</ele>
        <time>2007-05-09T06:48:35Z</time>
      </trkpt>
      <trkpt lat="36.541476" lon="-5.424406">
        <ele>540.202</ele>
        <time>2007-05-09T06:48:59Z</time>
      </trkpt>
      <trkpt lat="36.541917" lon="-5.424941">
        <ele>541.547</ele>
        <time>2007-05-09T06:49:25Z</time>
      </trkpt>
      <trkpt lat="36.542306" lon="-5.424875">
        <ele>552.361</ele>
        <time>2007-05-09T06:49:52Z</time>
      </trkpt>
      <trkpt lat="36.542576" lon="-5.425333">
        <ele>552.468</ele>
        <time>2007-05-09T06:50:16Z</time>
      </trkpt>
      <trkpt lat="36.542682" lon="-5.425905">
        <ele>544.1950000000001</ele>
        <time>2007-05-09T06:51:03Z</time>
      </trkpt>
      <trkpt lat="36.543107" lon="-5.425791">
        <ele>551.367</ele>
        <time>2007-05-09T06:51:30Z</time>
      </trkpt>
      <trkpt lat="36.543561" lon="-5.425968">
        <ele>548.425</ele>
        <time>2007-05-09T06:51:57Z</time>
      </trkpt>
      <trkpt lat="36.544835" lon="-5.426035">
        <ele>552.7859999999999</ele>
        <time>2007-05-09T06:52:35Z</time>
      </trkpt>
      <trkpt lat="36.545333" lon="-5.425737">
        <ele>560.302</ele>
        <time>2007-05-09T06:52:49Z</time>
      </trkpt>
      <trkpt lat="36.54641" lon="-5.425969">
        <ele>568.496</ele>
        <time>2007-05-09T06:53:31Z</time>
      </trkpt>
      <trkpt lat="36.547237" lon="-5.42633">
        <ele>572.962</ele>
        <time>2007-05-09T06:54:04Z</time>
      </trkpt>
      <trkpt lat="36.547425" lon="-5.426717">
        <ele>567.709</ele>
        <time>2007-05-09T06:54:59Z</time>
      </trkpt>
      <trkpt lat="36.548247" lon="-5.427174">
        <ele>567.475</ele>
        <time>2007-05-09T06:55:12Z</time>
      </trkpt>
      <trkpt lat="36.549181" lon="-5.427437">
        <ele>571.535</ele>
        <time>2007-05-09T06:55:33Z</time>
      </trkpt>
      <trkpt lat="36.549815" lon="-5.427309">
        <ele>576.417</ele>
        <time>2007-05-09T06:55:54Z</time>
      </trkpt>
      <trkpt lat="36.551313" lon="-5.427306">
        <ele>587.216</ele>
        <time>2007-05-09T06:56:16Z</time>
      </trkpt>
      <trkpt lat="36.551785" lon="-5.427442">
        <ele>586.948</ele>
        <time>2007-05-09T06:56:43Z</time>
      </trkpt>
      <trkpt lat="36.552106" lon="-5.427373">
        <ele>593.881</ele>
        <time>2007-05-09T06:57:22Z</time>
      </trkpt>
      <trkpt lat="36.552246" lon="-5.427486">
        <ele>593.7000000000001</ele>
        <time>2007-05-09T06:57:50Z</time>
      </trkpt>
      <trkpt lat="36.552064" lon="-5.427856">
        <ele>592.256</ele>
        <time>2007-05-09T06:58:44Z</time>
      </trkpt>
      <trkpt lat="36.551357" lon="-5.428098">
        <ele>590.957</ele>
        <time>2007-05-09T06:59:58Z</time>
      </trkpt>
      <trkpt lat="36.550639" lon="-5.428700">
        <ele>590.584</ele>
        <time>2007-05-09T07:00:28Z</time>
      </trkpt>
      <trkpt lat="36.550094" lon="-5.429496">
        <ele>597.189</ele>
        <time>2007-05-09T07:00:46Z</time>
      </trkpt>
      <trkpt lat="36.549839" lon="-5.430637">
        <ele>613.409</ele>
        <time>2007-05-09T07:01:01Z</time>
      </trkpt>
      <trkpt lat="36.549295" lon="-5.431142">
        <ele>608.996</ele>
        <time>2007-05-09T07:01:46Z</time>
      </trkpt>
      <trkpt lat="36.549113" lon="-5.431753">
        <ele>619.706</ele>
        <time>2007-05-09T07:02:05Z</time>
      </trkpt>
      <trkpt lat="36.548767" lon="-5.432172">
        <ele>620.024</ele>
        <time>2007-05-09T07:02:46Z</time>
      </trkpt>
      <trkpt lat="36.548499" lon="-5.433009">
        <ele>631.187</ele>
        <time>2007-05-09T07:03:07Z</time>
      </trkpt>
      <trkpt lat="36.547648" lon="-5.432991">
        <ele>627.3630000000001</ele>
        <time>2007-05-09T07:03:22Z</time>
      </trkpt>
      <trkpt lat="36.54736" lon="-5.433519">
        <ele>627.4690000000001</ele>
        <time>2007-05-09T07:03:42Z</time>
      </trkpt>
      <trkpt lat="36.547711" lon="-5.433878">
        <ele>638.077</ele>
        <time>2007-05-09T07:04:33Z</time>
      </trkpt>
      <trkpt lat="36.547802" lon="-5.434408">
        <ele>643.5220000000001</ele>
        <time>2007-05-09T07:05:02Z</time>
      </trkpt>
      <trkpt lat="36.547639" lon="-5.434753">
        <ele>638.448</ele>
        <time>2007-05-09T07:05:10Z</time>
      </trkpt>
      <trkpt lat="36.547904" lon="-5.435716">
        <ele>642.126</ele>
        <time>2007-05-09T07:05:26Z</time>
      </trkpt>
      <trkpt lat="36.548109" lon="-5.435849">
        <ele>647.619</ele>
        <time>2007-05-09T07:05:38Z</time>
      </trkpt>
      <trkpt lat="36.548194" lon="-5.436239">
        <ele>648.487</ele>
        <time>2007-05-09T07:05:50Z</time>
      </trkpt>
      <trkpt lat="36.54805" lon="-5.43703">
        <ele>643.01</ele>
        <time>2007-05-09T07:06:08Z</time>
      </trkpt>
      <trkpt lat="36.548760" lon="-5.437749">
        <ele>641.766</ele>
        <time>2007-05-09T07:06:23Z</time>
      </trkpt>
      <trkpt lat="36.549001" lon="-5.438283">
        <ele>639.2960000000001</ele>
        <time>2007-05-09T07:06:50Z</time>
      </trkpt>
      <trkpt lat="36.549379" lon="-5.438624">
        <ele>645.233</ele>
        <time>2007-05-09T07:07:05Z</time>
      </trkpt>
      <trkpt lat="36.549637" lon="-5.439262">
        <ele>651.008</ele>
        <time>2007-05-09T07:07:27Z</time>
      </trkpt>
      <trkpt lat="36.54913" lon="-5.44032">
        <ele>643.092</ele>
        <time>2007-05-09T07:07:33Z</time>
      </trkpt>
      <trkpt lat="36.549531" lon="-5.440845">
        <ele>650.678</ele>
        <time>2007-05-09T07:07:45Z</time>
      </trkpt>
      <trkpt lat="36.550053" lon="-5.441885">
        <ele>653.782</ele>
        <time>2007-05-09T07:08:09Z</time>
      </trkpt>
      <trkpt lat="36.549955" lon="-5.442647">
        <ele>654.955</ele>
        <time>2007-05-09T07:08:15Z</time>
      </trkpt>
      <trkpt lat="36.548908" lon="-5.442395">
        <ele>654.646</ele>
        <time>2007-05-09T07:08:28Z</time>
      </trkpt>
      <trkpt lat="36.548373" lon="-5.442551">
        <ele>660.749</ele>
        <time>2007-05-09T07:08:40Z</time>
      </trkpt>
      <trkpt lat="36.545900" lon="-5.44195">
        <ele>667.414</ele>
        <time>2007-05-09T07:09:03Z</time>
      </trkpt>
      <trkpt lat="36.545283" lon="-5.442822">
        <ele>687.1710000000001</ele>
        <time>2007-05-09T07:09:22Z</time>
      </trkpt>
      <trkpt lat="36.544741" lon="-5.442769">
        <ele>691.54</ele>
        <time>2007-05-09T07:09:31Z</time>
      </trkpt>
      <trkpt lat="36.544337" lon="-5.442297">
        <ele>690.859</ele>
        <time>2007-05-09T07:09:57Z</time>
      </trkpt>
      <trkpt lat="36.544363" lon="-5.441473">
        <ele>685.146</ele>
        <time>2007-05-09T07:10:39Z</time>
      </trkpt>
      <trkpt lat="36.5441" lon="-5.44139">
        <ele>686.535</ele>
        <time>2007-05-09T07:10:56Z</time>
      </trkpt>
      <trkpt lat="36.543722" lon="-5.441989">
        <ele>696.146</ele>
        <time>2007-05-09T07:11:10Z</time>
      </trkpt>
      <trkpt lat="36.543448" lon="-5.442181">
        <ele>698.881</ele>
        <time>2007-05-09T07:11:27Z</time>
      </trkpt>
      <trkpt lat="36.543033" lon="-5.442107">
        <ele>695.7720000000001</ele>
        <time>2007-05-09T07:11:42Z</time>
      </trkpt>
      <trkpt lat="36.54241" lon="-5.442654">
        <ele>697.058</ele>
        <time>2007-05-09T07:11:53Z</time>
      </trkpt>
      <trkpt lat="36.542321" lon="-5.442986">
        <ele>698.189</ele>
        <time>2007-05-09T07:12:10Z</time>
      </trkpt>
      <trkpt lat="36.542604" lon="-5.44321">
        <ele>700.258</ele>
        <time>2007-05-09T07:13:01Z</time>
      </trkpt>
      <trkpt lat="36.543775" lon="-5.443456">
        <ele>713.845</ele>
        <time>2007-05-09T07:13:12Z</time>
      </trkpt>
      <trkpt lat="36.544276" lon="-5.443374">
        <ele>714.542</ele>
        <time>2007-05-09T07:13:32Z</time>
      </trkpt>
      <trkpt lat="36.544699" lon="-5.443711">
        <ele>718.822</ele>
        <time>2007-05-09T07:13:52Z</time>
      </trkpt>
      <trkpt lat="36.544932" lon="-5.444254">
        <ele>727.977</ele>
        <time>2007-05-09T07:14:07Z</time>
      </trkpt>
      <trkpt lat="36.545471" lon="-5.444429">
        <ele>727.28</ele>
        <time>2007-05-09T07:14:26Z</time>
      </trkpt>
      <trkpt lat="36.546123" lon="-5.445304">
        <ele>738.6230000000001</ele>
        <time>2007-05-09T07:14:44Z</time>
      </trkpt>
      <trkpt lat="36.547118" lon="-5.445879">
        <ele>748.274</ele>
        <time>2007-05-09T07:14:57Z</time>
      </trkpt>
      <trkpt lat="36.54773" lon="-5.44578">
        <ele>746.179</ele>
        <time>2007-05-09T07:15:05Z</time>
      </trkpt>
      <trkpt lat="36.548" lon="-5.4462">
        <ele>751.552</ele>
        <time>2007-05-09T07:16:02Z</time>
      </trkpt>
      <trkpt lat="36.547745" lon="-5.447665">
        <ele>767.058</ele>
        <time>2007-05-09T07:16:17Z</time>
      </trkpt>
      <trkpt lat="36.547887" lon="-5.447949">
        <ele>767.572</ele>
        <time>2007-05-09T07:16:52Z</time>
      </trkpt>
      <trkpt lat="36.548599" lon="-5.448131">
        <ele>763.7720000000001</ele>
        <time>2007-05-09T07:17:02Z</time>
      </trkpt>
      <trkpt lat="36.548828" lon="-5.448367">
        <ele>762.588</ele>
        <time>2007-05-09T07:17:11Z</time>
      </trkpt>
      <trkpt lat="36.548539" lon="-5.449346">
        <ele>770.428</ele>
        <time>2007-05-09T07:17:26Z</time>
      </trkpt>
      <trkpt lat="36.548482" lon="-5.450099">
        <ele>765.306</ele>
        <time>2007-05-09T07:17:57Z</time>
      </trkpt>
      <trkpt lat="36.547945" lon="-5.450562">
        <ele>770.7910000000001</ele>
        <time>2007-05-09T07:18:18Z</time>
      </trkpt>
      <trkpt lat="36.54783" lon="-5.45086">
        <ele>773.672</ele>
        <time>2007-05-09T07:18:30Z</time>
      </trkpt>
      <trkpt lat="36.548971" lon="-5.450981">
        <ele>766.391</ele>
        <time>2007-05-09T07:18:46Z</time>
      </trkpt>
      <trkpt lat="36.549464" lon="-5.451162">
        <ele>772.494</ele>
        <time>2007-05-09T07:19:13Z</time>
      </trkpt>
      <trkpt lat="36.550982" lon="-5.451245">
        <ele>783.2419999999999</ele>
        <time>2007-05-09T07:19:33Z</time>
      </trkpt>
      <trkpt lat="36.551994" lon="-5.451777">
        <ele>786.2480000000001</ele>
        <time>2007-05-09T07:19:56Z</time>
      </trkpt>
      <trkpt lat="36.554107" lon="-5.451468">
        <ele>779.27</ele>
        <time>2007-05-09T07:20:10Z</time>
      </trkpt>
      <trkpt lat="36.554573" lon="-5.451846">
        <ele>778.324</ele>
        <time>2007-05-09T07:20:24Z</time>
      </trkpt>
      <trkpt lat="36.554714" lon="-5.452588">
        <ele>781.4450000000002</ele>
        <time>2007-05-09T07:20:53Z</time>
      </trkpt>
      <trkpt lat="36.555166" lon="-5.453062">
        <ele>776.307</ele>
        <time>2007-05-09T07:21:08Z</time>
      </trkpt>
      <trkpt lat="36.555212" lon="-5.453488">
        <ele>780.136</ele>
        <time>2007-05-09T07:21:42Z</time>
      </trkpt>
      <trkpt lat="36.555629" lon="-5.454761">
        <ele>777.362</ele>
        <time>2007-05-09T07:22:17Z</time>
      </trkpt>
      <trkpt lat="36.555684" lon="-5.456281">
        <ele>773.507</ele>
        <time>2007-05-09T07:22:28Z</time>
      </trkpt>
      <trkpt lat="36.560094" lon="-5.455488">
        <ele>783.676</ele>
        <time>2007-05-09T07:22:43Z</time>
      </trkpt>
      <trkpt lat="36.560816" lon="-5.456524">
        <ele>791.5839999999998</ele>
        <time>2007-05-09T07:23:02Z</time>
      </trkpt>
      <trkpt lat="36.560871" lon="-5.457019">
        <ele>792.8839999999999</ele>
        <time>2007-05-09T07:23:25Z</time>
      </trkpt>
      <trkpt lat="36.560688" lon="-5.457235">
        <ele>792.77</ele>
        <time>2007-05-09T07:23:51Z</time>
      </trkpt>
      <trkpt lat="36.559953" lon="-5.457387">
        <ele>797.828</ele>
        <time>2007-05-09T07:24:00Z</time>
      </trkpt>
      <trkpt lat="36.559239" lon="-5.457941">
        <ele>795.89</ele>
        <time>2007-05-09T07:24:16Z</time>
      </trkpt>
      <trkpt lat="36.558616" lon="-5.458758">
        <ele>794.7219999999999</ele>
        <time>2007-05-09T07:25:06Z</time>
      </trkpt>
      <trkpt lat="36.557919" lon="-5.459053">
        <ele>803.112</ele>
        <time>2007-05-09T07:25:18Z</time>
      </trkpt>
      <trkpt lat="36.557692" lon="-5.459288">
        <ele>800.425</ele>
        <time>2007-05-09T07:25:40Z</time>
      </trkpt>
      <trkpt lat="36.55746" lon="-5.459315">
        <ele>800.6510000000001</ele>
        <time>2007-05-09T07:26:05Z</time>
      </trkpt>
      <trkpt lat="36.557168" lon="-5.459158">
        <ele>805.3510000000001</ele>
        <time>2007-05-09T07:26:26Z</time>
      </trkpt>
      <trkpt lat="36.556515" lon="-5.458996">
        <ele>809.336</ele>
        <time>2007-05-09T07:26:43Z</time>
      </trkpt>
      <trkpt lat="36.555743" lon="-5.459351">
        <ele>807.571</ele>
        <time>2007-05-09T07:27:05Z</time>
      </trkpt>
      <trkpt lat="36.555177" lon="-5.459353">
        <ele>809.0090000000001</ele>
        <time>2007-05-09T07:27:27Z</time>
      </trkpt>
      <trkpt lat="36.554533" lon="-5.459603">
        <ele>807.7559999999999</ele>
        <time>2007-05-09T07:28:03Z</time>
      </trkpt>
      <trkpt lat="36.553885" lon="-5.459678">
        <ele>810.278</ele>
        <time>2007-05-09T07:28:28Z</time>
      </trkpt>
      <trkpt lat="36.553561" lon="-5.459859">
        <ele>805.6019999999999</ele>
        <time>2007-05-09T07:29:08Z</time>
      </trkpt>
      <trkpt lat="36.553193" lon="-5.460321">
        <ele>799.669</ele>
        <time>2007-05-09T07:29:31Z</time>
      </trkpt>
      <trkpt lat="36.552561" lon="-5.460772">
        <ele>796.664</ele>
        <time>2007-05-09T07:30:10Z</time>
      </trkpt>
      <trkpt lat="36.552197" lon="-5.460911">
        <ele>796.0000000000001</ele>
        <time>2007-05-09T07:30:40Z</time>
      </trkpt>
      <trkpt lat="36.551845" lon="-5.461564">
        <ele>796.8680000000001</ele>
        <time>2007-05-09T07:30:56Z</time>
      </trkpt>
      <trkpt lat="36.551657" lon="-5.462228">
        <ele>797.0229999999999</ele>
        <time>2007-05-09T07:31:06Z</time>
      </trkpt>
      <trkpt lat="36.55147" lon="-5.462450">
        <ele>797.005</ele>
        <time>2007-05-09T07:31:23Z</time>
      </trkpt>
      <trkpt lat="36.551077" lon="-5.463358">
        <ele>791.4919999999999</ele>
        <time>2007-05-09T07:31:51Z</time>
      </trkpt>
      <trkpt lat="36.550902" lon="-5.463963">
        <ele>792.774</ele>
        <time>2007-05-09T07:32:09Z</time>
      </trkpt>
      <trkpt lat="36.550402" lon="-5.464619">
        <ele>791.713</ele>
        <time>2007-05-09T07:32:39Z</time>
      </trkpt>
      <trkpt lat="36.549539" lon="-5.466247">
        <ele>770.874</ele>
        <time>2007-05-09T07:33:00Z</time>
      </trkpt>
      <trkpt lat="36.548631" lon="-5.467028">
        <ele>767.4889999999999</ele>
        <time>2007-05-09T07:33:35Z</time>
      </trkpt>
      <trkpt lat="36.548197" lon="-5.467262">
        <ele>766.995</ele>
        <time>2007-05-09T07:33:50Z</time>
      </trkpt>
      <trkpt lat="36.548193" lon="-5.467477">
        <ele>767.019</ele>
        <time>2007-05-09T07:34:33Z</time>
      </trkpt>
      <trkpt lat="36.549921" lon="-5.468578">
        <ele>755.872</ele>
        <time>2007-05-09T07:34:58Z</time>
      </trkpt>
      <trkpt lat="36.550543" lon="-5.469074">
        <ele>744.798</ele>
        <time>2007-05-09T07:35:19Z</time>
      </trkpt>
      <trkpt lat="36.550893" lon="-5.469482">
        <ele>745.7430000000001</ele>
        <time>2007-05-09T07:35:45Z</time>
      </trkpt>
      <trkpt lat="36.55111" lon="-5.46953">
        <ele>739.576</ele>
        <time>2007-05-09T07:36:04Z</time>
      </trkpt>
      <trkpt lat="36.551381" lon="-5.470005">
        <ele>736.3449999999999</ele>
        <time>2007-05-09T07:36:26Z</time>
      </trkpt>
      <trkpt lat="36.55138" lon="-5.470222">
        <ele>740.233</ele>
        <time>2007-05-09T07:36:51Z</time>
      </trkpt>
      <trkpt lat="36.551913" lon="-5.470549">
        <ele>732.74</ele>
        <time>2007-05-09T07:37:20Z</time>
      </trkpt>
      <trkpt lat="36.552058" lon="-5.470833">
        <ele>732.905</ele>
        <time>2007-05-09T07:37:36Z</time>
      </trkpt>
      <trkpt lat="36.552529" lon="-5.471032">
        <ele>726.915</ele>
        <time>2007-05-09T07:37:56Z</time>
      </trkpt>
      <trkpt lat="36.55294" lon="-5.471445">
        <ele>728.608</ele>
        <time>2007-05-09T07:38:45Z</time>
      </trkpt>
      <trkpt lat="36.553537" lon="-5.472272">
        <ele>718.86</ele>
        <time>2007-05-09T07:39:09Z</time>
      </trkpt>
      <trkpt lat="36.553519" lon="-5.472439">
        <ele>718.355</ele>
        <time>2007-05-09T07:39:40Z</time>
      </trkpt>
      <trkpt lat="36.553321" lon="-5.472452">
        <ele>722.792</ele>
        <time>2007-05-09T07:39:46Z</time>
      </trkpt>
      <trkpt lat="36.553135" lon="-5.472689">
        <ele>723.562</ele>
        <time>2007-05-09T07:40:10Z</time>
      </trkpt>
      <trkpt lat="36.55295" lon="-5.472787">
        <ele>726.18</ele>
        <time>2007-05-09T07:40:17Z</time>
      </trkpt>
      <trkpt lat="36.552828" lon="-5.472996">
        <ele>726.558</ele>
        <time>2007-05-09T07:40:31Z</time>
      </trkpt>
      <trkpt lat="36.552851" lon="-5.473285">
        <ele>724.81</ele>
        <time>2007-05-09T07:40:54Z</time>
      </trkpt>
      <trkpt lat="36.553175" lon="-5.47336">
        <ele>718.85</ele>
        <time>2007-05-09T07:41:44Z</time>
      </trkpt>
      <trkpt lat="36.553301" lon="-5.473644">
        <ele>716.554</ele>
        <time>2007-05-09T07:42:24Z</time>
      </trkpt>
      <trkpt lat="36.553174" lon="-5.474031">
        <ele>716.622</ele>
        <time>2007-05-09T07:42:40Z</time>
      </trkpt>
      <trkpt lat="36.553323" lon="-5.474482">
        <ele>713.584</ele>
        <time>2007-05-09T07:42:58Z</time>
      </trkpt>
      <trkpt lat="36.553174" lon="-5.474697">
        <ele>710.229</ele>
        <time>2007-05-09T07:43:36Z</time>
      </trkpt>
      <trkpt lat="36.551749" lon="-5.474572">
        <ele>702.675</ele>
        <time>2007-05-09T07:43:43Z</time>
      </trkpt>
      <trkpt lat="36.551339" lon="-5.475008">
        <ele>691.986</ele>
        <time>2007-05-09T07:44:04Z</time>
      </trkpt>
      <trkpt lat="36.550289" lon="-5.475207">
        <ele>685.914</ele>
        <time>2007-05-09T07:44:12Z</time>
      </trkpt>
      <trkpt lat="36.549558" lon="-5.475032">
        <ele>684.811</ele>
        <time>2007-05-09T07:44:30Z</time>
      </trkpt>
      <trkpt lat="36.549185" lon="-5.475511">
        <ele>674.235</ele>
        <time>2007-05-09T07:44:38Z</time>
      </trkpt>
      <trkpt lat="36.548625" lon="-5.475675">
        <ele>669.173</ele>
        <time>2007-05-09T07:45:05Z</time>
      </trkpt>
      <trkpt lat="36.548096" lon="-5.475704">
        <ele>674.667</ele>
        <time>2007-05-09T07:45:23Z</time>
      </trkpt>
      <trkpt lat="36.547991" lon="-5.476035">
        <ele>667.586</ele>
        <time>2007-05-09T07:45:34Z</time>
      </trkpt>
      <trkpt lat="36.54815" lon="-5.476258">
        <ele>658.778</ele>
        <time>2007-05-09T07:45:49Z</time>
      </trkpt>
      <trkpt lat="36.548164" lon="-5.476532">
        <ele>652.146</ele>
        <time>2007-05-09T07:45:56Z</time>
      </trkpt>
      <trkpt lat="36.547765" lon="-5.476849">
        <ele>648.979</ele>
        <time>2007-05-09T07:46:07Z</time>
      </trkpt>
      <trkpt lat="36.547277" lon="-5.477012">
        <ele>651.901</ele>
        <time>2007-05-09T07:46:22Z</time>
      </trkpt>
      <trkpt lat="36.547055" lon="-5.477233">
        <ele>650.237</ele>
        <time>2007-05-09T07:46:29Z</time>
      </trkpt>
      <trkpt lat="36.546994" lon="-5.477900">
        <ele>640.73</ele>
        <time>2007-05-09T07:46:45Z</time>
      </trkpt>
      <trkpt lat="36.546647" lon="-5.478608">
        <ele>633.527</ele>
        <time>2007-05-09T07:47:06Z</time>
      </trkpt>
      <trkpt lat="36.546046" lon="-5.479177">
        <ele>630.208</ele>
        <time>2007-05-09T07:47:45Z</time>
      </trkpt>
      <trkpt lat="36.54611" lon="-5.479306">
        <ele>626.497</ele>
        <time>2007-05-09T07:48:02Z</time>
      </trkpt>
      <trkpt lat="36.54685" lon="-5.478925">
        <ele>619.47</ele>
        <time>2007-05-09T07:48:15Z</time>
      </trkpt>
      <trkpt lat="36.547785" lon="-5.478174">
        <ele>613.4109999999999</ele>
        <time>2007-05-09T07:48:38Z</time>
      </trkpt>
      <trkpt lat="36.54785" lon="-5.478279">
        <ele>608.587</ele>
        <time>2007-05-09T07:48:52Z</time>
      </trkpt>
      <trkpt lat="36.547424" lon="-5.478722">
        <ele>609.285</ele>
        <time>2007-05-09T07:49:12Z</time>
      </trkpt>
      <trkpt lat="36.547175" lon="-5.479533">
        <ele>597.542</ele>
        <time>2007-05-09T07:49:35Z</time>
      </trkpt>
      <trkpt lat="36.546772" lon="-5.479787">
        <ele>601.438</ele>
        <time>2007-05-09T07:49:48Z</time>
      </trkpt>
      <trkpt lat="36.546808" lon="-5.480051">
        <ele>594.81</ele>
        <time>2007-05-09T07:50:15Z</time>
      </trkpt>
      <trkpt lat="36.546565" lon="-5.480574">
        <ele>586.25</ele>
        <time>2007-05-09T07:50:32Z</time>
      </trkpt>
      <trkpt lat="36.546042" lon="-5.480754">
        <ele>585.138</ele>
        <time>2007-05-09T07:50:48Z</time>
      </trkpt>
      <trkpt lat="36.545652" lon="-5.481229">
        <ele>575.457</ele>
        <time>2007-05-09T07:50:55Z</time>
      </trkpt>
      <trkpt lat="36.545481" lon="-5.481295">
        <ele>573.076</ele>
        <time>2007-05-09T07:51:10Z</time>
      </trkpt>
      <trkpt lat="36.544444" lon="-5.480982">
        <ele>569.785</ele>
        <time>2007-05-09T07:51:39Z</time>
      </trkpt>
      <trkpt lat="36.544185" lon="-5.480448">
        <ele>579.685</ele>
        <time>2007-05-09T07:51:57Z</time>
      </trkpt>
      <trkpt lat="36.54398" lon="-5.48039">
        <ele>586.677</ele>
        <time>2007-05-09T07:52:17Z</time>
      </trkpt>
      <trkpt lat="36.543844" lon="-5.481238">
        <ele>565.549</ele>
        <time>2007-05-09T07:52:33Z</time>
      </trkpt>
      <trkpt lat="36.543694" lon="-5.481367">
        <ele>562.925</ele>
        <time>2007-05-09T07:52:47Z</time>
      </trkpt>
      <trkpt lat="36.543429" lon="-5.481234">
        <ele>571.68</ele>
        <time>2007-05-09T07:53:02Z</time>
      </trkpt>
      <trkpt lat="36.543251" lon="-5.481347">
        <ele>571.5940000000001</ele>
        <time>2007-05-09T07:53:22Z</time>
      </trkpt>
      <trkpt lat="36.543236" lon="-5.481741">
        <ele>560.805</ele>
        <time>2007-05-09T07:53:34Z</time>
      </trkpt>
      <trkpt lat="36.542954" lon="-5.482163">
        <ele>562.143</ele>
        <time>2007-05-09T07:53:52Z</time>
      </trkpt>
      <trkpt lat="36.543019" lon="-5.482521">
        <ele>560.497</ele>
        <time>2007-05-09T07:54:04Z</time>
      </trkpt>
      <trkpt lat="36.543521" lon="-5.482643">
        <ele>545.792</ele>
        <time>2007-05-09T07:54:12Z</time>
      </trkpt>
      <trkpt lat="36.543517" lon="-5.483096">
        <ele>549.534</ele>
        <time>2007-05-09T07:54:24Z</time>
      </trkpt>
      <trkpt lat="36.543756" lon="-5.483425">
        <ele>540.583</ele>
        <time>2007-05-09T07:54:31Z</time>
      </trkpt>
      <trkpt lat="36.543542" lon="-5.483836">
        <ele>546.107</ele>
        <time>2007-05-09T07:54:59Z</time>
      </trkpt>
      <trkpt lat="36.543819" lon="-5.484361">
        <ele>534.2380000000001</ele>
        <time>2007-05-09T07:55:07Z</time>
      </trkpt>
      <trkpt lat="36.54395" lon="-5.484896">
        <ele>532.979</ele>
        <time>2007-05-09T07:55:27Z</time>
      </trkpt>
      <trkpt lat="36.544453" lon="-5.48551">
        <ele>524.215</ele>
        <time>2007-05-09T07:56:10Z</time>
      </trkpt>
      <trkpt lat="36.544487" lon="-5.485979">
        <ele>528.726</ele>
        <time>2007-05-09T07:56:18Z</time>
      </trkpt>
      <trkpt lat="36.544577" lon="-5.486179">
        <ele>530.254</ele>
        <time>2007-05-09T07:56:39Z</time>
      </trkpt>
      <trkpt lat="36.544992" lon="-5.486178">
        <ele>523.02</ele>
        <time>2007-05-09T07:57:01Z</time>
      </trkpt>
      <trkpt lat="36.545299" lon="-5.485839">
        <ele>515.319</ele>
        <time>2007-05-09T07:57:21Z</time>
      </trkpt>
      <trkpt lat="36.545955" lon="-5.485968">
        <ele>526.5119999999999</ele>
        <time>2007-05-09T07:57:29Z</time>
      </trkpt>
      <trkpt lat="36.546271" lon="-5.485807">
        <ele>521.571</ele>
        <time>2007-05-09T07:57:47Z</time>
      </trkpt>
      <trkpt lat="36.546825" lon="-5.486012">
        <ele>524.702</ele>
        <time>2007-05-09T07:58:15Z</time>
      </trkpt>
      <trkpt lat="36.547121" lon="-5.486492">
        <ele>530.52</ele>
        <time>2007-05-09T07:58:38Z</time>
      </trkpt>
      <trkpt lat="36.547253" lon="-5.486893">
        <ele>536.982</ele>
        <time>2007-05-09T07:58:42Z</time>
      </trkpt>
      <trkpt lat="36.547685" lon="-5.487364">
        <ele>534.06</ele>
        <time>2007-05-09T07:59:26Z</time>
      </trkpt>
      <trkpt lat="36.54774" lon="-5.487762">
        <ele>539.932</ele>
        <time>2007-05-09T07:59:59Z</time>
      </trkpt>
      <trkpt lat="36.548003" lon="-5.488186">
        <ele>535.072</ele>
        <time>2007-05-09T08:00:03Z</time>
      </trkpt>
      <trkpt lat="36.547852" lon="-5.489368">
        <ele>529.293</ele>
        <time>2007-05-09T08:00:33Z</time>
      </trkpt>
      <trkpt lat="36.547499" lon="-5.489876">
        <ele>530.604</ele>
        <time>2007-05-09T08:01:00Z</time>
      </trkpt>
      <trkpt lat="36.547163" lon="-5.490104">
        <ele>535.35</ele>
        <time>2007-05-09T08:01:22Z</time>
      </trkpt>
      <trkpt lat="36.54709" lon="-5.490292">
        <ele>532.851</ele>
        <time>2007-05-09T08:01:33Z</time>
      </trkpt>
      <trkpt lat="36.546825" lon="-5.490655">
        <ele>534.89</ele>
        <time>2007-05-09T08:01:53Z</time>
      </trkpt>
      <trkpt lat="36.546584" lon="-5.490804">
        <ele>542.164</ele>
        <time>2007-05-09T08:02:12Z</time>
      </trkpt>
      <trkpt lat="36.546508" lon="-5.491018">
        <ele>539.7720000000001</ele>
        <time>2007-05-09T08:02:21Z</time>
      </trkpt>
      <trkpt lat="36.546753" lon="-5.491354">
        <ele>523.499</ele>
        <time>2007-05-09T08:02:31Z</time>
      </trkpt>
      <trkpt lat="36.546588" lon="-5.4916">
        <ele>521.21</ele>
        <time>2007-05-09T08:02:42Z</time>
      </trkpt>
      <trkpt lat="36.546147" lon="-5.491466">
        <ele>536.449</ele>
        <time>2007-05-09T08:03:04Z</time>
      </trkpt>
      <trkpt lat="36.54572" lon="-5.492139">
        <ele>518.927</ele>
        <time>2007-05-09T08:03:27Z</time>
      </trkpt>
      <trkpt lat="36.545544" lon="-5.492165">
        <ele>518.854</ele>
        <time>2007-05-09T08:03:48Z</time>
      </trkpt>
      <trkpt lat="36.54511" lon="-5.49197">
        <ele>525.832</ele>
        <time>2007-05-09T08:04:18Z</time>
      </trkpt>
      <trkpt lat="36.544924" lon="-5.49207">
        <ele>524.505</ele>
        <time>2007-05-09T08:05:01Z</time>
      </trkpt>
      <trkpt lat="36.544797" lon="-5.492691">
        <ele>511.257</ele>
        <time>2007-05-09T08:05:22Z</time>
      </trkpt>
      <trkpt lat="36.544657" lon="-5.492816">
        <ele>510.409</ele>
        <time>2007-05-09T08:06:19Z</time>
      </trkpt>
      <trkpt lat="36.543708" lon="-5.492796">
        <ele>519.187</ele>
        <time>2007-05-09T08:06:28Z</time>
      </trkpt>
      <trkpt lat="36.543972" lon="-5.493253">
        <ele>510.155</ele>
        <time>2007-05-09T08:06:44Z</time>
      </trkpt>
      <trkpt lat="36.54412" lon="-5.49371">
        <ele>501.752</ele>
        <time>2007-05-09T08:06:58Z</time>
      </trkpt>
      <trkpt lat="36.543924" lon="-5.494945">
        <ele>494.987</ele>
        <time>2007-05-09T08:07:08Z</time>
      </trkpt>
      <trkpt lat="36.543078" lon="-5.496081">
        <ele>484.5539999999999</ele>
        <time>2007-05-09T08:07:21Z</time>
      </trkpt>
      <trkpt lat="36.542611" lon="-5.496483">
        <ele>472.895</ele>
        <time>2007-05-09T08:07:31Z</time>
      </trkpt>
      <trkpt lat="36.542247" lon="-5.496406">
        <ele>472.607</ele>
        <time>2007-05-09T08:07:39Z</time>
      </trkpt>
      <trkpt lat="36.542259" lon="-5.496602">
        <ele>467.198</ele>
        <time>2007-05-09T08:07:47Z</time>
      </trkpt>
      <trkpt lat="36.542829" lon="-5.496853">
        <ele>463.265</ele>
        <time>2007-05-09T08:07:58Z</time>
      </trkpt>
      <trkpt lat="36.542802" lon="-5.497033">
        <ele>459.204</ele>
        <time>2007-05-09T08:08:06Z</time>
      </trkpt>
      <trkpt lat="36.54203" lon="-5.496997">
        <ele>457.2860000000001</ele>
        <time>2007-05-09T08:08:11Z</time>
      </trkpt>
      <trkpt lat="36.541442" lon="-5.496795">
        <ele>454.264</ele>
        <time>2007-05-09T08:08:47Z</time>
      </trkpt>
      <trkpt lat="36.54022" lon="-5.496689">
        <ele>448.723</ele>
        <time>2007-05-09T08:09:08Z</time>
      </trkpt>
      <trkpt lat="36.539828" lon="-5.497057">
        <ele>439.139</ele>
        <time>2007-05-09T08:09:28Z</time>
      </trkpt>
      <trkpt lat="36.53944" lon="-5.497081">
        <ele>444.18</ele>
        <time>2007-05-09T08:09:39Z</time>
      </trkpt>
      <trkpt lat="36.53893" lon="-5.49772">
        <ele>433.516</ele>
        <time>2007-05-09T08:10:03Z</time>
      </trkpt>
      <trkpt lat="36.538615" lon="-5.498401">
        <ele>423.48</ele>
        <time>2007-05-09T08:10:10Z</time>
      </trkpt>
      <trkpt lat="36.538092" lon="-5.498558">
        <ele>420.068</ele>
        <time>2007-05-09T08:10:29Z</time>
      </trkpt>
      <trkpt lat="36.537626" lon="-5.498393">
        <ele>427.609</ele>
        <time>2007-05-09T08:10:37Z</time>
      </trkpt>
      <trkpt lat="36.537197" lon="-5.498983">
        <ele>414.4549999999999</ele>
        <time>2007-05-09T08:10:57Z</time>
      </trkpt>
      <trkpt lat="36.536677" lon="-5.499065">
        <ele>413.12</ele>
        <time>2007-05-09T08:11:26Z</time>
      </trkpt>
      <trkpt lat="36.536071" lon="-5.499286">
        <ele>408.282</ele>
        <time>2007-05-09T08:12:44Z</time>
      </trkpt>
      <trkpt lat="36.535201" lon="-5.500082">
        <ele>394.713</ele>
        <time>2007-05-09T08:12:51Z</time>
      </trkpt>
      <trkpt lat="36.534838" lon="-5.500218">
        <ele>392.91</ele>
        <time>2007-05-09T08:13:10Z</time>
      </trkpt>
      <trkpt lat="36.534031" lon="-5.500622">
        <ele>387.951</ele>
        <time>2007-05-09T08:13:54Z</time>
      </trkpt>
      <trkpt lat="36.533602" lon="-5.50096">
        <ele>384.549</ele>
        <time>2007-05-09T08:14:57Z</time>
      </trkpt>
      <trkpt lat="36.533435" lon="-5.501889">
        <ele>368.94</ele>
        <time>2007-05-09T08:15:26Z</time>
      </trkpt>
      <trkpt lat="36.533119" lon="-5.502292">
        <ele>366.351</ele>
        <time>2007-05-09T08:15:46Z</time>
      </trkpt>
      <trkpt lat="36.532864" lon="-5.503091">
        <ele>359.258</ele>
        <time>2007-05-09T08:16:20Z</time>
      </trkpt>
      <trkpt lat="36.532454" lon="-5.503215">
        <ele>358.243</ele>
        <time>2007-05-09T08:16:30Z</time>
      </trkpt>
      <trkpt lat="36.532388" lon="-5.503521">
        <ele>355.12</ele>
        <time>2007-05-09T08:16:53Z</time>
      </trkpt>
      <trkpt lat="36.532107" lon="-5.50386">
        <ele>353.289</ele>
        <time>2007-05-09T08:17:18Z</time>
      </trkpt>
      <trkpt lat="36.531371" lon="-5.504075">
        <ele>353.216</ele>
        <time>2007-05-09T08:17:33Z</time>
      </trkpt>
      <trkpt lat="36.530777" lon="-5.505033">
        <ele>345.12</ele>
        <time>2007-05-09T08:18:03Z</time>
      </trkpt>
      <trkpt lat="36.530241" lon="-5.505294">
        <ele>344.848</ele>
        <time>2007-05-09T08:18:23Z</time>
      </trkpt>
      <trkpt lat="36.52954" lon="-5.506155">
        <ele>332.523</ele>
        <time>2007-05-09T08:18:38Z</time>
      </trkpt>
      <trkpt lat="36.528951" lon="-5.506434">
        <ele>330.879</ele>
        <time>2007-05-09T08:19:04Z</time>
      </trkpt>
      <trkpt lat="36.528257" lon="-5.507138">
        <ele>326.128</ele>
        <time>2007-05-09T08:19:31Z</time>
      </trkpt>
      <trkpt lat="36.528079" lon="-5.507778">
        <ele>316.66</ele>
        <time>2007-05-09T08:19:54Z</time>
      </trkpt>
      <trkpt lat="36.527573" lon="-5.508056">
        <ele>318.47</ele>
        <time>2007-05-09T08:20:27Z</time>
      </trkpt>
      <trkpt lat="36.527349" lon="-5.508511">
        <ele>315.209</ele>
        <time>2007-05-09T08:20:53Z</time>
      </trkpt>
      <trkpt lat="36.526812" lon="-5.508477">
        <ele>310.49</ele>
        <time>2007-05-09T08:21:06Z</time>
      </trkpt>
      <trkpt lat="36.526253" lon="-5.508222">
        <ele>319.368</ele>
        <time>2007-05-09T08:21:15Z</time>
      </trkpt>
      <trkpt lat="36.525686" lon="-5.508142">
        <ele>324.583</ele>
        <time>2007-05-09T08:21:27Z</time>
      </trkpt>
      <trkpt lat="36.5254" lon="-5.508261">
        <ele>324.849</ele>
        <time>2007-05-09T08:21:57Z</time>
      </trkpt>
      <trkpt lat="36.524589" lon="-5.509433">
        <ele>317.583</ele>
        <time>2007-05-09T08:22:33Z</time>
      </trkpt>
      <trkpt lat="36.524552" lon="-5.509906">
        <ele>309.476</ele>
        <time>2007-05-09T08:23:07Z</time>
      </trkpt>
      <trkpt lat="36.524425" lon="-5.510138">
        <ele>306.229</ele>
        <time>2007-05-09T08:23:37Z</time>
      </trkpt>
      <trkpt lat="36.523766" lon="-5.510247">
        <ele>308.763</ele>
        <time>2007-05-09T08:23:47Z</time>
      </trkpt>
      <trkpt lat="36.523245" lon="-5.510495">
        <ele>307.603</ele>
        <time>2007-05-09T08:24:03Z</time>
      </trkpt>
      <trkpt lat="36.522992" lon="-5.511005">
        <ele>308.366</ele>
        <time>2007-05-09T08:24:47Z</time>
      </trkpt>
      <trkpt lat="36.523011" lon="-5.511477">
        <ele>302.381</ele>
        <time>2007-05-09T08:27:45Z</time>
      </trkpt>
      <trkpt lat="36.522892" lon="-5.511767">
        <ele>298.817</ele>
        <time>2007-05-09T08:28:34Z</time>
      </trkpt>
      <trkpt lat="36.52205" lon="-5.512082">
        <ele>293.633</ele>
        <time>2007-05-09T08:29:19Z</time>
      </trkpt>
      <trkpt lat="36.521199" lon="-5.511919">
        <ele>290.55</ele>
        <time>2007-05-09T08:29:33Z</time>
      </trkpt>
      <trkpt lat="36.520831" lon="-5.511971">
        <ele>290.426</ele>
        <time>2007-05-09T08:29:56Z</time>
      </trkpt>
      <trkpt lat="36.520294" lon="-5.512582">
        <ele>279.744</ele>
        <time>2007-05-09T08:30:21Z</time>
      </trkpt>
      <trkpt lat="36.519965" lon="-5.51247">
        <ele>285.152</ele>
        <time>2007-05-09T08:30:43Z</time>
      </trkpt>
      <trkpt lat="36.519627" lon="-5.512583">
        <ele>287.338</ele>
        <time>2007-05-09T08:32:09Z</time>
      </trkpt>
      <trkpt lat="36.51915" lon="-5.512971">
        <ele>285.329</ele>
        <time>2007-05-09T08:32:52Z</time>
      </trkpt>
      <trkpt lat="36.518928" lon="-5.513525">
        <ele>269.508</ele>
        <time>2007-05-09T08:33:53Z</time>
      </trkpt>
      <trkpt lat="36.518251" lon="-5.513542">
        <ele>269.377</ele>
        <time>2007-05-09T08:34:14Z</time>
      </trkpt>
      <trkpt lat="36.517915" lon="-5.513834">
        <ele>264.208</ele>
        <time>2007-05-09T08:35:00Z</time>
      </trkpt>
      <trkpt lat="36.517614" lon="-5.513869">
        <ele>270.416</ele>
        <time>2007-05-09T08:35:10Z</time>
      </trkpt>
      <trkpt lat="36.517302" lon="-5.514376">
        <ele>269.208</ele>
        <time>2007-05-09T08:35:37Z</time>
      </trkpt>
      <trkpt lat="36.517437" lon="-5.515333">
        <ele>259.668</ele>
        <time>2007-05-09T08:36:01Z</time>
      </trkpt>
      <trkpt lat="36.51768" lon="-5.515651">
        <ele>254.351</ele>
        <time>2007-05-09T08:36:35Z</time>
      </trkpt>
      <trkpt lat="36.517655" lon="-5.515956">
        <ele>251.444</ele>
        <time>2007-05-09T08:36:46Z</time>
      </trkpt>
      <trkpt lat="36.517448" lon="-5.516089">
        <ele>253.054</ele>
        <time>2007-05-09T08:37:16Z</time>
      </trkpt>
      <trkpt lat="36.516586" lon="-5.516222">
        <ele>257.779</ele>
        <time>2007-05-09T08:37:26Z</time>
      </trkpt>
      <trkpt lat="36.516279" lon="-5.516537">
        <ele>250.083</ele>
        <time>2007-05-09T08:38:15Z</time>
      </trkpt>
      <trkpt lat="36.51486" lon="-5.516389">
        <ele>251.007</ele>
        <time>2007-05-09T08:38:32Z</time>
      </trkpt>
      <trkpt lat="36.514758" lon="-5.51657">
        <ele>249.302</ele>
        <time>2007-05-09T08:38:57Z</time>
      </trkpt>
      <trkpt lat="36.514449" lon="-5.51673">
        <ele>251.254</ele>
        <time>2007-05-09T08:39:41Z</time>
      </trkpt>
      <trkpt lat="36.514218" lon="-5.517206">
        <ele>247.038</ele>
        <time>2007-05-09T08:40:19Z</time>
      </trkpt>
      <trkpt lat="36.51413" lon="-5.517783">
        <ele>239.906</ele>
        <time>2007-05-09T08:40:42Z</time>
      </trkpt>
      <trkpt lat="36.513766" lon="-5.517721">
        <ele>240</ele>
        <time>2007-05-09T08:41:01Z</time>
      </trkpt>
      <trkpt lat="36.513264" lon="-5.517856">
        <ele>237.027</ele>
        <time>2007-05-09T08:41:21Z</time>
      </trkpt>
      <trkpt lat="36.512873" lon="-5.518206">
        <ele>233.126</ele>
        <time>2007-05-09T08:41:42Z</time>
      </trkpt>
      <trkpt lat="36.512706" lon="-5.518508">
        <ele>225.678</ele>
        <time>2007-05-09T08:42:29Z</time>
      </trkpt>
      <trkpt lat="36.511535" lon="-5.519071">
        <ele>222.392</ele>
        <time>2007-05-09T08:42:42Z</time>
      </trkpt>
      <trkpt lat="36.511105" lon="-5.519162">
        <ele>221.229</ele>
        <time>2007-05-09T08:42:54Z</time>
      </trkpt>
      <trkpt lat="36.510874" lon="-5.519317">
        <ele>217.216</ele>
        <time>2007-05-09T08:43:25Z</time>
      </trkpt>
      <trkpt lat="36.510476" lon="-5.51935">
        <ele>222.739</ele>
        <time>2007-05-09T08:43:41Z</time>
      </trkpt>
      <trkpt lat="36.510289" lon="-5.519811">
        <ele>213.841</ele>
        <time>2007-05-09T08:43:54Z</time>
      </trkpt>
      <trkpt lat="36.510030" lon="-5.520077">
        <ele>207.904</ele>
        <time>2007-05-09T08:44:18Z</time>
      </trkpt>
      <trkpt lat="36.509622" lon="-5.520206">
        <ele>205.355</ele>
        <time>2007-05-09T08:44:29Z</time>
      </trkpt>
      <trkpt lat="36.508689" lon="-5.519552">
        <ele>205.422</ele>
        <time>2007-05-09T08:44:56Z</time>
      </trkpt>
      <trkpt lat="36.508072" lon="-5.519349">
        <ele>202.007</ele>
        <time>2007-05-09T08:45:18Z</time>
      </trkpt>
      <trkpt lat="36.507852" lon="-5.519367">
        <ele>199.762</ele>
        <time>2007-05-09T08:45:40Z</time>
      </trkpt>
      <trkpt lat="36.507434" lon="-5.519686">
        <ele>189.104</ele>
        <time>2007-05-09T08:46:17Z</time>
      </trkpt>
      <trkpt lat="36.506892" lon="-5.519484">
        <ele>187.477</ele>
        <time>2007-05-09T08:47:58Z</time>
      </trkpt>
      <trkpt lat="36.506721" lon="-5.519165">
        <ele>190.577</ele>
        <time>2007-05-09T08:48:20Z</time>
      </trkpt>
      <trkpt lat="36.506713" lon="-5.518774">
        <ele>193.162</ele>
        <time>2007-05-09T08:49:03Z</time>
      </trkpt>
      <trkpt lat="36.506597" lon="-5.518641">
        <ele>192.175</ele>
        <time>2007-05-09T08:49:28Z</time>
      </trkpt>
      <trkpt lat="36.506014" lon="-5.518768">
        <ele>189.527</ele>
        <time>2007-05-09T08:50:07Z</time>
      </trkpt>
      <trkpt lat="36.505866" lon="-5.519095">
        <ele>181.601</ele>
        <time>2007-05-09T08:50:30Z</time>
      </trkpt>
      <trkpt lat="36.505717" lon="-5.519111">
        <ele>180.481</ele>
        <time>2007-05-09T08:51:10Z</time>
      </trkpt>
      <trkpt lat="36.50534" lon="-5.518628">
        <ele>186.368</ele>
        <time>2007-05-09T08:51:33Z</time>
      </trkpt>
      <trkpt lat="36.505024" lon="-5.518885">
        <ele>177.492</ele>
        <time>2007-05-09T08:51:52Z</time>
      </trkpt>
      <trkpt lat="36.504363" lon="-5.518671">
        <ele>171.872</ele>
        <time>2007-05-09T08:52:12Z</time>
      </trkpt>
      <trkpt lat="36.504159" lon="-5.518312">
        <ele>176.295</ele>
        <time>2007-05-09T08:52:48Z</time>
      </trkpt>
      <trkpt lat="36.503693" lon="-5.518258">
        <ele>167.205</ele>
        <time>2007-05-09T08:53:15Z</time>
      </trkpt>
      <trkpt lat="36.503524" lon="-5.517972">
        <ele>168.309</ele>
        <time>2007-05-09T08:53:28Z</time>
      </trkpt>
      <trkpt lat="36.503236" lon="-5.517844">
        <ele>164.14</ele>
        <time>2007-05-09T08:53:37Z</time>
      </trkpt>
      <trkpt lat="36.503018" lon="-5.517427">
        <ele>161.893</ele>
        <time>2007-05-09T08:54:10Z</time>
      </trkpt>
      <trkpt lat="36.50284" lon="-5.51735">
        <ele>160.631</ele>
        <time>2007-05-09T08:54:22Z</time>
      </trkpt>
      <trkpt lat="36.502495" lon="-5.516536">
        <ele>166.869</ele>
        <time>2007-05-09T08:54:40Z</time>
      </trkpt>
      <trkpt lat="36.501621" lon="-5.515418">
        <ele>162.574</ele>
        <time>2007-05-09T08:54:58Z</time>
      </trkpt>
      <trkpt lat="36.501432" lon="-5.514812">
        <ele>161.967</ele>
        <time>2007-05-09T08:55:18Z</time>
      </trkpt>
      <trkpt lat="36.501084" lon="-5.51466">
        <ele>159.63</ele>
        <time>2007-05-09T08:55:53Z</time>
      </trkpt>
      <trkpt lat="36.500581" lon="-5.514724">
        <ele>163.87</ele>
        <time>2007-05-09T08:56:22Z</time>
      </trkpt>
      <trkpt lat="36.499561" lon="-5.514621">
        <ele>171.444</ele>
        <time>2007-05-09T08:56:41Z</time>
      </trkpt>
      <trkpt lat="36.499136" lon="-5.514894">
        <ele>166.86</ele>
        <time>2007-05-09T08:57:02Z</time>
      </trkpt>
      <trkpt lat="36.498017" lon="-5.514793">
        <ele>178.227</ele>
        <time>2007-05-09T08:57:29Z</time>
      </trkpt>
      <trkpt lat="36.497654" lon="-5.514895">
        <ele>179.671</ele>
        <time>2007-05-09T08:58:07Z</time>
      </trkpt>
      <trkpt lat="36.497201" lon="-5.514896">
        <ele>180.468</ele>
        <time>2007-05-09T08:58:41Z</time>
      </trkpt>
      <trkpt lat="36.496615" lon="-5.514304">
        <ele>188.861</ele>
        <time>2007-05-09T08:59:16Z</time>
      </trkpt>
      <trkpt lat="36.49483" lon="-5.513721">
        <ele>204.601</ele>
        <time>2007-05-09T08:59:45Z</time>
      </trkpt>
      <trkpt lat="36.493504" lon="-5.513433">
        <ele>211.856</ele>
        <time>2007-05-09T08:59:59Z</time>
      </trkpt>
      <trkpt lat="36.492865" lon="-5.513116">
        <ele>216.322</ele>
        <time>2007-05-09T09:00:06Z</time>
      </trkpt>
      <trkpt lat="36.49223" lon="-5.512176">
        <ele>223.431</ele>
        <time>2007-05-09T09:00:19Z</time>
      </trkpt>
      <trkpt lat="36.492203" lon="-5.511331">
        <ele>227.475</ele>
        <time>2007-05-09T09:00:38Z</time>
      </trkpt>
      <trkpt lat="36.491941" lon="-5.510746">
        <ele>226.543</ele>
        <time>2007-05-09T09:01:38Z</time>
      </trkpt>
      <trkpt lat="36.491454" lon="-5.510515">
        <ele>225.287</ele>
        <time>2007-05-09T09:02:04Z</time>
      </trkpt>
      <trkpt lat="36.491191" lon="-5.509945">
        <ele>227.8</ele>
        <time>2007-05-09T09:02:42Z</time>
      </trkpt>
      <trkpt lat="36.4909" lon="-5.509751">
        <ele>232.422</ele>
        <time>2007-05-09T09:03:19Z</time>
      </trkpt>
      <trkpt lat="36.489576" lon="-5.510145">
        <ele>232.108</ele>
        <time>2007-05-09T09:03:33Z</time>
      </trkpt>
      <trkpt lat="36.488763" lon="-5.509953">
        <ele>228.75</ele>
        <time>2007-05-09T09:04:08Z</time>
      </trkpt>
      <trkpt lat="36.488278" lon="-5.508812">
        <ele>232.786</ele>
        <time>2007-05-09T09:04:52Z</time>
      </trkpt>
      <trkpt lat="36.48798" lon="-5.508542">
        <ele>234.11</ele>
        <time>2007-05-09T09:05:14Z</time>
      </trkpt>
      <trkpt lat="36.487032" lon="-5.508424">
        <ele>236.498</ele>
        <time>2007-05-09T09:06:05Z</time>
      </trkpt>
      <trkpt lat="36.486407" lon="-5.508157">
        <ele>237.778</ele>
        <time>2007-05-09T09:06:24Z</time>
      </trkpt>
      <trkpt lat="36.485735" lon="-5.508082">
        <ele>237.7</ele>
        <time>2007-05-09T09:06:42Z</time>
      </trkpt>
      <trkpt lat="36.484649" lon="-5.507515">
        <ele>237.77</ele>
        <time>2007-05-09T09:07:01Z</time>
      </trkpt>
      <trkpt lat="36.484052" lon="-5.507502">
        <ele>226.45</ele>
        <time>2007-05-09T09:07:19Z</time>
      </trkpt>
      <trkpt lat="36.483516" lon="-5.507019">
        <ele>221.142</ele>
        <time>2007-05-09T09:07:35Z</time>
      </trkpt>
      <trkpt lat="36.483423" lon="-5.506215">
        <ele>226.288</ele>
        <time>2007-05-09T09:08:00Z</time>
      </trkpt>
      <trkpt lat="36.482962" lon="-5.505717">
        <ele>225.062</ele>
        <time>2007-05-09T09:08:15Z</time>
      </trkpt>
      <trkpt lat="36.482432" lon="-5.505508">
        <ele>225.188</ele>
        <time>2007-05-09T09:08:49Z</time>
      </trkpt>
      <trkpt lat="36.482079" lon="-5.505192">
        <ele>229.981</ele>
        <time>2007-05-09T09:09:13Z</time>
      </trkpt>
      <trkpt lat="36.481452" lon="-5.505312">
        <ele>230.555</ele>
        <time>2007-05-09T09:09:29Z</time>
      </trkpt>
      <trkpt lat="36.481011" lon="-5.505174">
        <ele>232.989</ele>
        <time>2007-05-09T09:10:12Z</time>
      </trkpt>
      <trkpt lat="36.480689" lon="-5.505261">
        <ele>234.837</ele>
        <time>2007-05-09T09:10:31Z</time>
      </trkpt>
      <trkpt lat="36.480177" lon="-5.505907">
        <ele>227.531</ele>
        <time>2007-05-09T09:11:15Z</time>
      </trkpt>
      <trkpt lat="36.479927" lon="-5.505952">
        <ele>226.846</ele>
        <time>2007-05-09T09:11:30Z</time>
      </trkpt>
      <trkpt lat="36.479112" lon="-5.504979">
        <ele>229.924</ele>
        <time>2007-05-09T09:12:28Z</time>
      </trkpt>
      <trkpt lat="36.478741" lon="-5.50497">
        <ele>228.008</ele>
        <time>2007-05-09T09:13:30Z</time>
      </trkpt>
      <trkpt lat="36.477886" lon="-5.505765">
        <ele>218.499</ele>
        <time>2007-05-09T09:14:05Z</time>
      </trkpt>
      <trkpt lat="36.477412" lon="-5.505745">
        <ele>215.472</ele>
        <time>2007-05-09T09:14:50Z</time>
      </trkpt>
      <trkpt lat="36.476753" lon="-5.504714">
        <ele>220.412</ele>
        <time>2007-05-09T09:15:09Z</time>
      </trkpt>
      <trkpt lat="36.476275" lon="-5.504586">
        <ele>216.693</ele>
        <time>2007-05-09T09:15:26Z</time>
      </trkpt>
      <trkpt lat="36.475732" lon="-5.504823">
        <ele>210.192</ele>
        <time>2007-05-09T09:16:13Z</time>
      </trkpt>
      <trkpt lat="36.475188" lon="-5.505225">
        <ele>201.264</ele>
        <time>2007-05-09T09:16:44Z</time>
      </trkpt>
      <trkpt lat="36.474504" lon="-5.504985">
        <ele>200.699</ele>
        <time>2007-05-09T09:16:55Z</time>
      </trkpt>
      <trkpt lat="36.473616" lon="-5.504927">
        <ele>196.822</ele>
        <time>2007-05-09T09:17:39Z</time>
      </trkpt>
      <trkpt lat="36.47305" lon="-5.505485">
        <ele>187.788</ele>
        <time>2007-05-09T09:18:03Z</time>
      </trkpt>
      <trkpt lat="36.472149" lon="-5.505801">
        <ele>182.737</ele>
        <time>2007-05-09T09:18:33Z</time>
      </trkpt>
      <trkpt lat="36.47187" lon="-5.505549">
        <ele>179.648</ele>
        <time>2007-05-09T09:18:50Z</time>
      </trkpt>
      <trkpt lat="36.4718" lon="-5.505069">
        <ele>181.112</ele>
        <time>2007-05-09T09:19:06Z</time>
      </trkpt>
      <trkpt lat="36.471997" lon="-5.50446">
        <ele>182.058</ele>
        <time>2007-05-09T09:19:27Z</time>
      </trkpt>
      <trkpt lat="36.472004" lon="-5.503274">
        <ele>172.86</ele>
        <time>2007-05-09T09:20:03Z</time>
      </trkpt>
      <trkpt lat="36.47228" lon="-5.502501">
        <ele>174.045</ele>
        <time>2007-05-09T09:20:41Z</time>
      </trkpt>
      <trkpt lat="36.472118" lon="-5.501112">
        <ele>158.631</ele>
        <time>2007-05-09T09:21:21Z</time>
      </trkpt>
      <trkpt lat="36.472183" lon="-5.500019">
        <ele>155.871</ele>
        <time>2007-05-09T09:21:38Z</time>
      </trkpt>
      <trkpt lat="36.472943" lon="-5.499502">
        <ele>160.424</ele>
        <time>2007-05-09T09:22:18Z</time>
      </trkpt>
      <trkpt lat="36.47322" lon="-5.49943">
        <ele>162.296</ele>
        <time>2007-05-09T09:22:41Z</time>
      </trkpt>
      <trkpt lat="36.473427" lon="-5.498734">
        <ele>156.007</ele>
        <time>2007-05-09T09:23:01Z</time>
      </trkpt>
      <trkpt lat="36.473367" lon="-5.498328">
        <ele>159.623</ele>
        <time>2007-05-09T09:23:48Z</time>
      </trkpt>
      <trkpt lat="36.473135" lon="-5.497918">
        <ele>162.882</ele>
        <time>2007-05-09T09:24:28Z</time>
      </trkpt>
      <trkpt lat="36.47264" lon="-5.4976">
        <ele>153.664</ele>
        <time>2007-05-09T09:24:56Z</time>
      </trkpt>
      <trkpt lat="36.472354" lon="-5.49695">
        <ele>155.684</ele>
        <time>2007-05-09T09:25:15Z</time>
      </trkpt>
      <trkpt lat="36.472261" lon="-5.49621">
        <ele>152.185</ele>
        <time>2007-05-09T09:25:26Z</time>
      </trkpt>
      <trkpt lat="36.472574" lon="-5.495437">
        <ele>154.437</ele>
        <time>2007-05-09T09:25:45Z</time>
      </trkpt>
      <trkpt lat="36.472434" lon="-5.494295">
        <ele>153.342</ele>
        <time>2007-05-09T09:26:01Z</time>
      </trkpt>
      <trkpt lat="36.47184" lon="-5.493398">
        <ele>145.415</ele>
        <time>2007-05-09T09:26:27Z</time>
      </trkpt>
      <trkpt lat="36.471655" lon="-5.493317">
        <ele>147.538</ele>
        <time>2007-05-09T09:26:57Z</time>
      </trkpt>
      <trkpt lat="36.470949" lon="-5.493707">
        <ele>144.274</ele>
        <time>2007-05-09T09:27:22Z</time>
      </trkpt>
      <trkpt lat="36.470194" lon="-5.493748">
        <ele>141.344</ele>
        <time>2007-05-09T09:27:45Z</time>
      </trkpt>
      <trkpt lat="36.469594" lon="-5.493588">
        <ele>136.986</ele>
        <time>2007-05-09T09:28:09Z</time>
      </trkpt>
      <trkpt lat="36.468749" lon="-5.493062">
        <ele>135.786</ele>
        <time>2007-05-09T09:28:31Z</time>
      </trkpt>
      <trkpt lat="36.468058" lon="-5.492736">
        <ele>128.247</ele>
        <time>2007-05-09T09:29:07Z</time>
      </trkpt>
      <trkpt lat="36.467592" lon="-5.492345">
        <ele>125.842</ele>
        <time>2007-05-09T09:29:48Z</time>
      </trkpt>
      <trkpt lat="36.467483" lon="-5.492044">
        <ele>124.816</ele>
        <time>2007-05-09T09:30:30Z</time>
      </trkpt>
      <trkpt lat="36.46775" lon="-5.490337">
        <ele>124.492</ele>
        <time>2007-05-09T09:30:51Z</time>
      </trkpt>
      <trkpt lat="36.467647" lon="-5.490105">
        <ele>122.619</ele>
        <time>2007-05-09T09:31:40Z</time>
      </trkpt>
      <trkpt lat="36.467168" lon="-5.489932">
        <ele>119.76</ele>
        <time>2007-05-09T09:31:55Z</time>
      </trkpt>
      <trkpt lat="36.466867" lon="-5.489957">
        <ele>124.85</ele>
        <time>2007-05-09T09:32:15Z</time>
      </trkpt>
      <trkpt lat="36.46625" lon="-5.490532">
        <ele>126.466</ele>
        <time>2007-05-09T09:32:37Z</time>
      </trkpt>
      <trkpt lat="36.466021" lon="-5.490523">
        <ele>127.586</ele>
        <time>2007-05-09T09:32:58Z</time>
      </trkpt>
      <trkpt lat="36.465426" lon="-5.490201">
        <ele>132.996</ele>
        <time>2007-05-09T09:33:11Z</time>
      </trkpt>
      <trkpt lat="36.464802" lon="-5.490206">
        <ele>136.32</ele>
        <time>2007-05-09T09:33:29Z</time>
      </trkpt>
      <trkpt lat="36.464547" lon="-5.490124">
        <ele>138.845</ele>
        <time>2007-05-09T09:34:00Z</time>
      </trkpt>
      <trkpt lat="36.464063" lon="-5.489372">
        <ele>144.818</ele>
        <time>2007-05-09T09:34:36Z</time>
      </trkpt>
      <trkpt lat="36.463725" lon="-5.489198">
        <ele>145.553</ele>
        <time>2007-05-09T09:35:07Z</time>
      </trkpt>
      <trkpt lat="36.462697" lon="-5.489228">
        <ele>141.617</ele>
        <time>2007-05-09T09:35:36Z</time>
      </trkpt>
      <trkpt lat="36.462263" lon="-5.488931">
        <ele>154.905</ele>
        <time>2007-05-09T09:36:21Z</time>
      </trkpt>
      <trkpt lat="36.461653" lon="-5.489044">
        <ele>143.303</ele>
        <time>2007-05-09T09:36:54Z</time>
      </trkpt>
      <trkpt lat="36.460512" lon="-5.488905">
        <ele>145.471</ele>
        <time>2007-05-09T09:37:36Z</time>
      </trkpt>
      <trkpt lat="36.460117" lon="-5.488497">
        <ele>151.397</ele>
        <time>2007-05-09T09:37:49Z</time>
      </trkpt>
      <trkpt lat="36.459176" lon="-5.488103">
        <ele>150.922</ele>
        <time>2007-05-09T09:38:36Z</time>
      </trkpt>
      <trkpt lat="36.458885" lon="-5.487859">
        <ele>149.12</ele>
        <time>2007-05-09T09:38:44Z</time>
      </trkpt>
      <trkpt lat="36.458426" lon="-5.486969">
        <ele>153.992</ele>
        <time>2007-05-09T09:40:06Z</time>
      </trkpt>
      <trkpt lat="36.458166" lon="-5.486697">
        <ele>157.944</ele>
        <time>2007-05-09T09:40:54Z</time>
      </trkpt>
      <trkpt lat="36.457549" lon="-5.48644">
        <ele>153.996</ele>
        <time>2007-05-09T09:41:30Z</time>
      </trkpt>
      <trkpt lat="36.456916" lon="-5.48577">
        <ele>154.028</ele>
        <time>2007-05-09T09:42:27Z</time>
      </trkpt>
      <trkpt lat="36.45668" lon="-5.485282">
        <ele>155.359</ele>
        <time>2007-05-09T09:42:46Z</time>
      </trkpt>
      <trkpt lat="36.456684" lon="-5.484683">
        <ele>159.322</ele>
        <time>2007-05-09T09:43:15Z</time>
      </trkpt>
      <trkpt lat="36.456318" lon="-5.484101">
        <ele>158.023</ele>
        <time>2007-05-09T09:43:26Z</time>
      </trkpt>
      <trkpt lat="36.456038" lon="-5.482644">
        <ele>164.657</ele>
        <time>2007-05-09T09:43:57Z</time>
      </trkpt>
      <trkpt lat="36.456565" lon="-5.481246">
        <ele>167.854</ele>
        <time>2007-05-09T09:44:45Z</time>
      </trkpt>
      <trkpt lat="36.456367" lon="-5.480769">
        <ele>160.212</ele>
        <time>2007-05-09T09:45:01Z</time>
      </trkpt>
      <trkpt lat="36.456462" lon="-5.480372">
        <ele>164.03</ele>
        <time>2007-05-09T09:45:29Z</time>
      </trkpt>
      <trkpt lat="36.456350" lon="-5.479986">
        <ele>162.797</ele>
        <time>2007-05-09T09:46:06Z</time>
      </trkpt>
      <trkpt lat="36.456557" lon="-5.478914">
        <ele>165.602</ele>
        <time>2007-05-09T09:46:24Z</time>
      </trkpt>
      <trkpt lat="36.456505" lon="-5.478522">
        <ele>167.328</ele>
        <time>2007-05-09T09:46:37Z</time>
      </trkpt>
      <trkpt lat="36.455426" lon="-5.477879">
        <ele>166.719</ele>
        <time>2007-05-09T09:47:38Z</time>
      </trkpt>
      <trkpt lat="36.45515" lon="-5.477438">
        <ele>170.11</ele>
        <time>2007-05-09T09:48:03Z</time>
      </trkpt>
      <trkpt lat="36.454533" lon="-5.47722">
        <ele>170.71</ele>
        <time>2007-05-09T09:48:22Z</time>
      </trkpt>
      <trkpt lat="36.453321" lon="-5.475984">
        <ele>178.224</ele>
        <time>2007-05-09T09:48:44Z</time>
      </trkpt>
      <trkpt lat="36.451847" lon="-5.475908">
        <ele>183.942</ele>
        <time>2007-05-09T09:49:14Z</time>
      </trkpt>
      <trkpt lat="36.451059" lon="-5.475724">
        <ele>189.058</ele>
        <time>2007-05-09T09:49:30Z</time>
      </trkpt>
      <trkpt lat="36.450558" lon="-5.475913">
        <ele>184.114</ele>
        <time>2007-05-09T09:49:53Z</time>
      </trkpt>
      <trkpt lat="36.450078" lon="-5.475628">
        <ele>187.452</ele>
        <time>2007-05-09T09:50:42Z</time>
      </trkpt>
      <trkpt lat="36.449172" lon="-5.47547">
        <ele>196.827</ele>
        <time>2007-05-09T09:51:11Z</time>
      </trkpt>
      <trkpt lat="36.448695" lon="-5.475088">
        <ele>204.626</ele>
        <time>2007-05-09T09:51:18Z</time>
      </trkpt>
      <trkpt lat="36.448177" lon="-5.475071">
        <ele>200.43</ele>
        <time>2007-05-09T09:51:32Z</time>
      </trkpt>
      <trkpt lat="36.447589" lon="-5.474803">
        <ele>207.385</ele>
        <time>2007-05-09T09:51:41Z</time>
      </trkpt>
      <trkpt lat="36.446977" lon="-5.47479">
        <ele>206.687</ele>
        <time>2007-05-09T09:51:52Z</time>
      </trkpt>
      <trkpt lat="36.446757" lon="-5.474579">
        <ele>211.884</ele>
        <time>2007-05-09T09:51:59Z</time>
      </trkpt>
      <trkpt lat="36.446705" lon="-5.474175">
        <ele>211.466</ele>
        <time>2007-05-09T09:52:25Z</time>
      </trkpt>
      <trkpt lat="36.447305" lon="-5.472272">
        <ele>188.803</ele>
        <time>2007-05-09T09:52:32Z</time>
      </trkpt>
      <trkpt lat="36.447424" lon="-5.471396">
        <ele>183.187</ele>
        <time>2007-05-09T09:52:50Z</time>
      </trkpt>
      <trkpt lat="36.447578" lon="-5.47096">
        <ele>175.987</ele>
        <time>2007-05-09T09:53:01Z</time>
      </trkpt>
      <trkpt lat="36.448146" lon="-5.470264">
        <ele>173.529</ele>
        <time>2007-05-09T09:53:14Z</time>
      </trkpt>
      <trkpt lat="36.448393" lon="-5.468311">
        <ele>161.762</ele>
        <time>2007-05-09T09:53:28Z</time>
      </trkpt>
      <trkpt lat="36.448303" lon="-5.468021">
        <ele>159.935</ele>
        <time>2007-05-09T09:53:37Z</time>
      </trkpt>
      <trkpt lat="36.446971" lon="-5.467132">
        <ele>157.942</ele>
        <time>2007-05-09T09:54:15Z</time>
      </trkpt>
      <trkpt lat="36.446063" lon="-5.466859">
        <ele>151.35</ele>
        <time>2007-05-09T09:54:22Z</time>
      </trkpt>
      <trkpt lat="36.44582" lon="-5.46658">
        <ele>149.745</ele>
        <time>2007-05-09T09:54:55Z</time>
      </trkpt>
      <trkpt lat="36.445426" lon="-5.464931">
        <ele>145.799</ele>
        <time>2007-05-09T09:55:21Z</time>
      </trkpt>
      <trkpt lat="36.444885" lon="-5.463401">
        <ele>138.201</ele>
        <time>2007-05-09T09:55:43Z</time>
      </trkpt>
      <trkpt lat="36.444468" lon="-5.461454">
        <ele>130.424</ele>
        <time>2007-05-09T09:56:18Z</time>
      </trkpt>
      <trkpt lat="36.444559" lon="-5.461036">
        <ele>126.378</ele>
        <time>2007-05-09T06:00:00Z</time>
      </trkpt>
      <trkpt lat="36.443157" lon="-5.459926">
        <ele>111.9</ele>
        <time>2007-05-09T06:00:46Z</time>
      </trkpt>
      <trkpt lat="36.442191" lon="-5.459077">
        <ele>108.66</ele>
        <time>2007-05-09T06:01:04Z</time>
      </trkpt>
      <trkpt lat="36.44192" lon="-5.458715">
        <ele>112.319</ele>
        <time>2007-05-09T06:01:25Z</time>
      </trkpt>
      <trkpt lat="36.441744" lon="-5.457994">
        <ele>115.551</ele>
        <time>2007-05-09T06:02:36Z</time>
      </trkpt>
      <trkpt lat="36.441005" lon="-5.456882">
        <ele>121.022</ele>
        <time>2007-05-09T06:03:20Z</time>
      </trkpt>
      <trkpt lat="36.440809" lon="-5.456752">
        <ele>120.826</ele>
        <time>2007-05-09T06:03:32Z</time>
      </trkpt>
      <trkpt lat="36.440353" lon="-5.456729">
        <ele>124.239</ele>
        <time>2007-05-09T06:04:39Z</time>
      </trkpt>
      <trkpt lat="36.439837" lon="-5.456404">
        <ele>125.793</ele>
        <time>2007-05-09T06:04:48Z</time>
      </trkpt>
      <trkpt lat="36.439477" lon="-5.456045">
        <ele>128.696</ele>
        <time>2007-05-09T06:05:15Z</time>
      </trkpt>
      <trkpt lat="36.438759" lon="-5.45595">
        <ele>130.876</ele>
        <time>2007-05-09T06:05:25Z</time>
      </trkpt>
      <trkpt lat="36.437961" lon="-5.455598">
        <ele>128.973</ele>
        <time>2007-05-09T06:05:55Z</time>
      </trkpt>
      <trkpt lat="36.436234" lon="-5.454614">
        <ele>143.787</ele>
        <time>2007-05-09T06:06:05Z</time>
      </trkpt>
      <trkpt lat="36.435301" lon="-5.453839">
        <ele>138.48</ele>
        <time>2007-05-09T06:06:41Z</time>
      </trkpt>
      <trkpt lat="36.434796" lon="-5.453543">
        <ele>129.369</ele>
        <time>2007-05-09T06:07:01Z</time>
      </trkpt>
      <trkpt lat="36.434506" lon="-5.453461">
        <ele>127.876</ele>
        <time>2007-05-09T06:08:10Z</time>
      </trkpt>
      <trkpt lat="36.43317" lon="-5.452656">
        <ele>110.808</ele>
        <time>2007-05-09T06:08:16Z</time>
      </trkpt>
      <trkpt lat="36.432364" lon="-5.451566">
        <ele>94.863</ele>
        <time>2007-05-09T06:08:27Z</time>
      </trkpt>
      <trkpt lat="36.431738" lon="-5.45088">
        <ele>86.41500000000001</ele>
        <time>2007-05-09T06:08:38Z</time>
      </trkpt>
      <trkpt lat="36.431526" lon="-5.450764">
        <ele>84.875</ele>
        <time>2007-05-09T06:08:52Z</time>
      </trkpt>
      <trkpt lat="36.431157" lon="-5.450918">
        <ele>83.88</ele>
        <time>2007-05-09T06:09:12Z</time>
      </trkpt>
      <trkpt lat="36.431096" lon="-5.45075">
        <ele>79.78100000000001</ele>
        <time>2007-05-09T06:09:31Z</time>
      </trkpt>
      <trkpt lat="36.431297" lon="-5.450279">
        <ele>73.372</ele>
        <time>2007-05-09T06:09:39Z</time>
      </trkpt>
      <trkpt lat="36.431955" lon="-5.450178">
        <ele>72.18000000000001</ele>
        <time>2007-05-09T06:09:57Z</time>
      </trkpt>
      <trkpt lat="36.432146" lon="-5.450051">
        <ele>69.785</ele>
        <time>2007-05-09T06:10:11Z</time>
      </trkpt>
      <trkpt lat="36.432328" lon="-5.449431">
        <ele>64.30200000000001</ele>
        <time>2007-05-09T06:10:16Z</time>
      </trkpt>
      <trkpt lat="36.432679" lon="-5.448757">
        <ele>61.339</ele>
        <time>2007-05-09T06:10:29Z</time>
      </trkpt>
      <trkpt lat="36.432703" lon="-5.448331">
        <ele>58.453</ele>
        <time>2007-05-09T06:10:39Z</time>
      </trkpt>
      <trkpt lat="36.432105" lon="-5.448677">
        <ele>56.34599999999999</ele>
        <time>2007-05-09T06:10:54Z</time>
      </trkpt>
      <trkpt lat="36.431861" lon="-5.448977">
        <ele>56.256</ele>
        <time>2007-05-09T06:11:01Z</time>
      </trkpt>
      <trkpt lat="36.431524" lon="-5.449208">
        <ele>57.546</ele>
        <time>2007-05-09T06:11:59Z</time>
      </trkpt>
      <trkpt lat="36.430441" lon="-5.449603">
        <ele>54.45800000000001</ele>
        <time>2007-05-09T06:12:18Z</time>
      </trkpt>
      <trkpt lat="36.429907" lon="-5.449566">
        <ele>46.492</ele>
        <time>2007-05-09T06:12:34Z</time>
      </trkpt>
      <trkpt lat="36.429764" lon="-5.449711">
        <ele>44.816</ele>
        <time>2007-05-09T06:12:55Z</time>
      </trkpt>
      <trkpt lat="36.429805" lon="-5.449955">
        <ele>45.2</ele>
        <time>2007-05-09T06:13:06Z</time>
      </trkpt>
      <trkpt lat="36.43013" lon="-5.45021">
        <ele>52.922</ele>
        <time>2007-05-09T06:13:22Z</time>
      </trkpt>
      <trkpt lat="36.430184" lon="-5.450492">
        <ele>53.714</ele>
        <time>2007-05-09T06:13:28Z</time>
      </trkpt>
      <trkpt lat="36.430031" lon="-5.450824">
        <ele>51.93000000000001</ele>
        <time>2007-05-09T06:13:45Z</time>
      </trkpt>
      <trkpt lat="36.429328" lon="-5.451068">
        <ele>42.277</ele>
        <time>2007-05-09T06:13:53Z</time>
      </trkpt>
      <trkpt lat="36.428015" lon="-5.452273">
        <ele>28.928</ele>
        <time>2007-05-09T06:14:07Z</time>
      </trkpt>
      <trkpt lat="36.426845" lon="-5.452173">
        <ele>29.662</ele>
        <time>2007-05-09T06:14:30Z</time>
      </trkpt>
      <trkpt lat="36.426649" lon="-5.452246">
        <ele>29.983</ele>
        <time>2007-05-09T06:14:38Z</time>
      </trkpt>
      <trkpt lat="36.426054" lon="-5.452821">
        <ele>33.517</ele>
        <time>2007-05-09T06:16:38Z</time>
      </trkpt>
      <trkpt lat="36.425801" lon="-5.452792">
        <ele>34.108</ele>
        <time>2007-05-09T06:16:45Z</time>
      </trkpt>
      <trkpt lat="36.425517" lon="-5.452412">
        <ele>34.65</ele>
        <time>2007-05-09T06:17:01Z</time>
      </trkpt>
      <trkpt lat="36.425356" lon="-5.452322">
        <ele>37.132</ele>
        <time>2007-05-09T06:17:23Z</time>
      </trkpt>
      <trkpt lat="36.42502" lon="-5.452028">
        <ele>40.135</ele>
        <time>2007-05-09T06:17:30Z</time>
      </trkpt>
      <trkpt lat="36.423851" lon="-5.451343">
        <ele>37.755</ele>
        <time>2007-05-09T06:18:37Z</time>
      </trkpt>
      <trkpt lat="36.423452" lon="-5.450959">
        <ele>36.857</ele>
        <time>2007-05-09T06:19:04Z</time>
      </trkpt>
      <trkpt lat="36.4225" lon="-5.45031">
        <ele>33.348</ele>
        <time>2007-05-09T06:19:35Z</time>
      </trkpt>
      <trkpt lat="36.421997" lon="-5.449783">
        <ele>32.207</ele>
        <time>2007-05-09T06:19:43Z</time>
      </trkpt>
      <trkpt lat="36.421511" lon="-5.449545">
        <ele>32.366</ele>
        <time>2007-05-09T06:20:04Z</time>
      </trkpt>
      <trkpt lat="36.420086" lon="-5.449362">
        <ele>24.013</ele>
        <time>2007-05-09T06:20:28Z</time>
      </trkpt>
      <trkpt lat="36.419494" lon="-5.449065">
        <ele>24.456</ele>
        <time>2007-05-09T06:20:48Z</time>
      </trkpt>
      <trkpt lat="36.419104" lon="-5.448602">
        <ele>25.411</ele>
        <time>2007-05-09T06:21:03Z</time>
      </trkpt>
      <trkpt lat="36.41846" lon="-5.44795">
        <ele>26.252</ele>
        <time>2007-05-09T06:21:31Z</time>
      </trkpt>
      <trkpt lat="36.41818" lon="-5.44743">
        <ele>26.739</ele>
        <time>2007-05-09T06:22:00Z</time>
      </trkpt>
      <trkpt lat="36.41783" lon="-5.44693">
        <ele>26.688</ele>
        <time>2007-05-09T06:22:22Z</time>
      </trkpt>
      <trkpt lat="36.417665" lon="-5.446461">
        <ele>25.249</ele>
        <time>2007-05-09T06:22:48Z</time>
      </trkpt>
      <trkpt lat="36.417173" lon="-5.445386">
        <ele>23.311</ele>
        <time>2007-05-09T06:23:29Z</time>
      </trkpt>
      <trkpt lat="36.417296" lon="-5.444839">
        <ele>21.043</ele>
        <time>2007-05-09T06:24:07Z</time>
      </trkpt>
      <trkpt lat="36.417267" lon="-5.444608">
        <ele>20.905</ele>
        <time>2007-05-09T06:24:28Z</time>
      </trkpt>
      <trkpt lat="36.416832" lon="-5.444169">
        <ele>24.801</ele>
        <time>2007-05-09T06:24:35Z</time>
      </trkpt>
      <trkpt lat="36.416338" lon="-5.443913">
        <ele>27.746</ele>
        <time>2007-05-09T06:25:04Z</time>
      </trkpt>
      <trkpt lat="36.415492" lon="-5.443822">
        <ele>28.47</ele>
        <time>2007-05-09T06:25:20Z</time>
      </trkpt>
      <trkpt lat="36.414971" lon="-5.442849">
        <ele>28.361</ele>
        <time>2007-05-09T06:26:12Z</time>
      </trkpt>
      <trkpt lat="36.414378" lon="-5.442911">
        <ele>32.312</ele>
        <time>2007-05-09T06:26:20Z</time>
      </trkpt>
      <trkpt lat="36.414187" lon="-5.442664">
        <ele>32.991</ele>
        <time>2007-05-09T06:27:17Z</time>
      </trkpt>
      <trkpt lat="36.413269" lon="-5.442190">
        <ele>31.116</ele>
        <time>2007-05-09T06:28:38Z</time>
      </trkpt>
      <trkpt lat="36.412899" lon="-5.441921">
        <ele>30.268</ele>
        <time>2007-05-09T06:28:46Z</time>
      </trkpt>
      <trkpt lat="36.41206" lon="-5.441432">
        <ele>29.05</ele>
        <time>2007-05-09T06:29:46Z</time>
      </trkpt>
      <trkpt lat="36.411172" lon="-5.441155">
        <ele>28.973</ele>
        <time>2007-05-09T06:30:49Z</time>
      </trkpt>
      <trkpt lat="36.410539" lon="-5.441102">
        <ele>29</ele>
        <time>2007-05-09T06:31:01Z</time>
      </trkpt>
      <trkpt lat="36.410202" lon="-5.441205">
        <ele>29.338</ele>
        <time>2007-05-09T06:31:39Z</time>
      </trkpt>
      <trkpt lat="36.409887" lon="-5.441272">
        <ele>29.344</ele>
        <time>2007-05-09T06:33:20Z</time>
      </trkpt>
      <trkpt lat="36.409653" lon="-5.441433">
        <ele>29.238</ele>
        <time>2007-05-09T06:33:28Z</time>
      </trkpt>
      <trkpt lat="36.406951" lon="-5.442945">
        <ele>27.611</ele>
        <time>2007-05-09T06:33:47Z</time>
      </trkpt>
      <trkpt lat="36.406274" lon="-5.443258">
        <ele>26.203</ele>
        <time>2007-05-09T06:37:04Z</time>
      </trkpt>
      <trkpt lat="36.405954" lon="-5.443338">
        <ele>25.444</ele>
        <time>2007-05-09T06:37:22Z</time>
      </trkpt>
      <trkpt lat="36.405411" lon="-5.44337">
        <ele>24.584</ele>
        <time>2007-05-09T06:38:21Z</time>
      </trkpt>
      <trkpt lat="36.40439" lon="-5.443204">
        <ele>26.392</ele>
        <time>2007-05-09T06:38:43Z</time>
      </trkpt>
      <trkpt lat="36.403952" lon="-5.442932">
        <ele>28.085</ele>
        <time>2007-05-09T06:38:55Z</time>
      </trkpt>
      <trkpt lat="36.403584" lon="-5.44289">
        <ele>28.447</ele>
        <time>2007-05-09T06:40:59Z</time>
      </trkpt>
      <trkpt lat="36.402779" lon="-5.4425">
        <ele>31.996</ele>
        <time>2007-05-09T06:41:09Z</time>
      </trkpt>
      <trkpt lat="36.402298" lon="-5.442504">
        <ele>32.273</ele>
        <time>2007-05-09T06:42:12Z</time>
      </trkpt>
      <trkpt lat="36.401345" lon="-5.442736">
        <ele>30.411</ele>
        <time>2007-05-09T06:42:26Z</time>
      </trkpt>
      <trkpt lat="36.401059" lon="-5.442706">
        <ele>30.861</ele>
        <time>2007-05-09T06:43:25Z</time>
      </trkpt>
      <trkpt lat="36.400218" lon="-5.442981">
        <ele>31.963</ele>
        <time>2007-05-09T06:43:44Z</time>
      </trkpt>
      <trkpt lat="36.399333" lon="-5.443579">
        <ele>26.761</ele>
        <time>2007-05-09T06:44:21Z</time>
      </trkpt>
      <trkpt lat="36.398994" lon="-5.443721">
        <ele>26</ele>
        <time>2007-05-09T06:44:45Z</time>
      </trkpt>
      <trkpt lat="36.398559" lon="-5.444145">
        <ele>27.139</ele>
        <time>2007-05-09T06:45:25Z</time>
      </trkpt>
      <trkpt lat="36.397372" lon="-5.445151">
        <ele>25.872</ele>
        <time>2007-05-09T06:56:15Z</time>
      </trkpt>
      <trkpt lat="36.395627" lon="-5.446043">
        <ele>21.961</ele>
        <time>2007-05-09T06:56:29Z</time>
      </trkpt>
      <trkpt lat="36.394818" lon="-5.445965">
        <ele>23.603</ele>
        <time>2007-05-09T06:56:43Z</time>
      </trkpt>
      <trkpt lat="36.394615" lon="-5.446156">
        <ele>25.162</ele>
        <time>2007-05-09T06:57:30Z</time>
      </trkpt>
      <trkpt lat="36.394167" lon="-5.44592">
        <ele>23.312</ele>
        <time>2007-05-09T06:57:44Z</time>
      </trkpt>
      <trkpt lat="36.392620" lon="-5.44537">
        <ele>21.9</ele>
        <time>2007-05-09T06:58:12Z</time>
      </trkpt>
      <trkpt lat="36.39242" lon="-5.44521">
        <ele>22.114</ele>
        <time>2007-05-09T06:58:23Z</time>
      </trkpt>
      <trkpt lat="36.392062" lon="-5.44466">
        <ele>20.776</ele>
        <time>2007-05-09T06:58:36Z</time>
      </trkpt>
      <trkpt lat="36.391711" lon="-5.444387">
        <ele>20.84</ele>
        <time>2007-05-09T07:00:12Z</time>
      </trkpt>
      <trkpt lat="36.39155" lon="-5.44434">
        <ele>21.42</ele>
        <time>2007-05-09T07:00:41Z</time>
      </trkpt>
      <trkpt lat="36.391282" lon="-5.444481">
        <ele>22</ele>
        <time>2007-05-09T07:02:47Z</time>
      </trkpt>
      <trkpt lat="36.391159" lon="-5.444451">
        <ele>22</ele>
        <time>2007-05-09T07:02:55Z</time>
      </trkpt>
      <trkpt lat="36.389019" lon="-5.4428">
        <ele>24.814</ele>
        <time>2007-05-09T07:03:09Z</time>
      </trkpt>
      <trkpt lat="36.3871" lon="-5.44116">
        <ele>24.176</ele>
        <time>2007-05-09T07:03:24Z</time>
      </trkpt>
      <trkpt lat="36.387059" lon="-5.440852">
        <ele>23.615</ele>
        <time>2007-05-09T07:03:42Z</time>
      </trkpt>
      <trkpt lat="36.38646" lon="-5.44028">
        <ele>25.008</ele>
        <time>2007-05-09T07:04:01Z</time>
      </trkpt>
      <trkpt lat="36.385749" lon="-5.439607">
        <ele>24.889</ele>
        <time>2007-05-09T07:04:17Z</time>
      </trkpt>
      <trkpt lat="36.385475" lon="-5.439408">
        <ele>25.749</ele>
        <time>2007-05-09T07:05:05Z</time>
      </trkpt>
      <trkpt lat="36.385281" lon="-5.439567">
        <ele>26.546</ele>
        <time>2007-05-09T07:05:17Z</time>
      </trkpt>
      <trkpt lat="36.385087" lon="-5.439463">
        <ele>26.887</ele>
        <time>2007-05-09T07:06:03Z</time>
      </trkpt>
      <trkpt lat="36.384005" lon="-5.438468">
        <ele>27.436</ele>
        <time>2007-05-09T07:06:49Z</time>
      </trkpt>
      <trkpt lat="36.383277" lon="-5.437665">
        <ele>28.203</ele>
        <time>2007-05-09T07:07:30Z</time>
      </trkpt>
      <trkpt lat="36.382787" lon="-5.437029">
        <ele>26.01</ele>
        <time>2007-05-09T07:07:40Z</time>
      </trkpt>
      <trkpt lat="36.382001" lon="-5.43567">
        <ele>26.964</ele>
        <time>2007-05-09T07:07:55Z</time>
      </trkpt>
      <trkpt lat="36.380761" lon="-5.432687">
        <ele>25.74</ele>
        <time>2007-05-09T07:08:09Z</time>
      </trkpt>
      <trkpt lat="36.381069" lon="-5.432052">
        <ele>26.48</ele>
        <time>2007-05-09T07:13:16Z</time>
      </trkpt>
      <trkpt lat="36.381087" lon="-5.431791">
        <ele>26.087</ele>
        <time>2007-05-09T07:13:43Z</time>
      </trkpt>
      <trkpt lat="36.380805" lon="-5.4307">
        <ele>20.773</ele>
        <time>2007-05-09T07:14:00Z</time>
      </trkpt>
      <trkpt lat="36.380434" lon="-5.430138">
        <ele>19.273</ele>
        <time>2007-05-09T07:14:58Z</time>
      </trkpt>
      <trkpt lat="36.38044" lon="-5.429722">
        <ele>16.584</ele>
        <time>2007-05-09T07:15:10Z</time>
      </trkpt>
      <trkpt lat="36.380364" lon="-5.429515">
        <ele>16.31</ele>
        <time>2007-05-09T07:15:18Z</time>
      </trkpt>
      <trkpt lat="36.380253" lon="-5.429436">
        <ele>16.12</ele>
        <time>2007-05-09T07:15:43Z</time>
      </trkpt>
      <trkpt lat="36.380145" lon="-5.429553">
        <ele>16.665</ele>
        <time>2007-05-09T07:15:53Z</time>
      </trkpt>
      <trkpt lat="36.37988" lon="-5.430541">
        <ele>21.402</ele>
        <time>2007-05-09T07:17:21Z</time>
      </trkpt>
      <trkpt lat="36.37973" lon="-5.430553">
        <ele>21.972</ele>
        <time>2007-05-09T07:17:36Z</time>
      </trkpt>
      <trkpt lat="36.379631" lon="-5.430229">
        <ele>23.432</ele>
        <time>2007-05-09T07:17:57Z</time>
      </trkpt>
      <trkpt lat="36.378147" lon="-5.426696">
        <ele>24.847</ele>
        <time>2007-05-09T07:18:17Z</time>
      </trkpt>
      <trkpt lat="36.377795" lon="-5.425987">
        <ele>22</ele>
        <time>2007-05-09T07:18:35Z</time>
      </trkpt>
      <trkpt lat="36.37737" lon="-5.425503">
        <ele>23.279</ele>
        <time>2007-05-09T07:18:58Z</time>
      </trkpt>
      <trkpt lat="36.376998" lon="-5.425156">
        <ele>23.369</ele>
        <time>2007-05-09T07:19:25Z</time>
      </trkpt>
      <trkpt lat="36.376561" lon="-5.424873">
        <ele>23</ele>
        <time>2007-05-09T07:21:34Z</time>
      </trkpt>
      <trkpt lat="36.37609" lon="-5.42461">
        <ele>22</ele>
        <time>2007-05-09T07:21:45Z</time>
      </trkpt>
      <trkpt lat="36.375712" lon="-5.424503">
        <ele>22</ele>
        <time>2007-05-09T07:21:51Z</time>
      </trkpt>
      <trkpt lat="36.373546" lon="-5.424117">
        <ele>23.056</ele>
        <time>2007-05-09T07:22:25Z</time>
      </trkpt>
      <trkpt lat="36.373325" lon="-5.423957">
        <ele>23.29</ele>
        <time>2007-05-09T07:22:30Z</time>
      </trkpt>
      <trkpt lat="36.37294" lon="-5.423341">
        <ele>23.887</ele>
        <time>2007-05-09T07:22:35Z</time>
      </trkpt>
      <trkpt lat="36.372785" lon="-5.423187">
        <ele>23.908</ele>
        <time>2007-05-09T07:22:43Z</time>
      </trkpt>
      <trkpt lat="36.37249" lon="-5.42316">
        <ele>22.382</ele>
        <time>2007-05-09T07:22:56Z</time>
      </trkpt>
      <trkpt lat="36.371107" lon="-5.423702">
        <ele>18.64</ele>
        <time>2007-05-09T07:23:20Z</time>
      </trkpt>
      <trkpt lat="36.370746" lon="-5.423931">
        <ele>19.256</ele>
        <time>2007-05-09T07:23:57Z</time>
      </trkpt>
      <trkpt lat="36.370058" lon="-5.42405">
        <ele>20.791</ele>
        <time>2007-05-09T07:24:05Z</time>
      </trkpt>
      <trkpt lat="36.362568" lon="-5.425953">
        <ele>19.431</ele>
        <time>2007-05-09T07:24:29Z</time>
      </trkpt>
      <trkpt lat="36.362256" lon="-5.425776">
        <ele>19</ele>
        <time>2007-05-09T07:26:18Z</time>
      </trkpt>
      <trkpt lat="36.361891" lon="-5.42592">
        <ele>19.808</ele>
        <time>2007-05-09T07:27:12Z</time>
      </trkpt>
      <trkpt lat="36.361711" lon="-5.42615">
        <ele>19.3</ele>
        <time>2007-05-09T07:27:40Z</time>
      </trkpt>
      <trkpt lat="36.360728" lon="-5.426411">
        <ele>20.03</ele>
        <time>2007-05-09T07:28:19Z</time>
      </trkpt>
      <trkpt lat="36.359572" lon="-5.42663">
        <ele>23.063</ele>
        <time>2007-05-09T07:29:13Z</time>
      </trkpt>
      <trkpt lat="36.358443" lon="-5.42667">
        <ele>21.053</ele>
        <time>2007-05-09T07:29:21Z</time>
      </trkpt>
      <trkpt lat="36.358152" lon="-5.426765">
        <ele>22.416</ele>
        <time>2007-05-09T07:29:30Z</time>
      </trkpt>
      <trkpt lat="36.356956" lon="-5.426643">
        <ele>20.784</ele>
        <time>2007-05-09T07:29:43Z</time>
      </trkpt>
      <trkpt lat="36.356632" lon="-5.426341">
        <ele>19.53</ele>
        <time>2007-05-09T07:30:19Z</time>
      </trkpt>
      <trkpt lat="36.356609" lon="-5.425764">
        <ele>16.75</ele>
        <time>2007-05-09T07:30:49Z</time>
      </trkpt>
      <trkpt lat="36.356196" lon="-5.425585">
        <ele>16.727</ele>
        <time>2007-05-09T07:30:59Z</time>
      </trkpt>
      <trkpt lat="36.35588" lon="-5.42588">
        <ele>17.14</ele>
        <time>2007-05-09T07:32:33Z</time>
      </trkpt>
      <trkpt lat="36.355955" lon="-5.426294">
        <ele>18.22</ele>
        <time>2007-05-09T07:34:14Z</time>
      </trkpt>
      <trkpt lat="36.355845" lon="-5.426517">
        <ele>19.439</ele>
        <time>2007-05-09T07:34:19Z</time>
      </trkpt>
      <trkpt lat="36.352762" lon="-5.425743">
        <ele>20</ele>
        <time>2007-05-09T07:34:30Z</time>
      </trkpt>
      <trkpt lat="36.352109" lon="-5.425349">
        <ele>21</ele>
        <time>2007-05-09T07:34:37Z</time>
      </trkpt>
      <trkpt lat="36.350117" lon="-5.423761">
        <ele>20.579</ele>
        <time>2007-05-09T07:34:54Z</time>
      </trkpt>
      <trkpt lat="36.349860" lon="-5.423482">
        <ele>21.039</ele>
        <time>2007-05-09T07:35:16Z</time>
      </trkpt>
      <trkpt lat="36.349611" lon="-5.423344">
        <ele>21.038</ele>
        <time>2007-05-09T07:35:26Z</time>
      </trkpt>
      <trkpt lat="36.349039" lon="-5.422866">
        <ele>22.46</ele>
        <time>2007-05-09T07:36:31Z</time>
      </trkpt>
      <trkpt lat="36.348774" lon="-5.422559">
        <ele>23.326</ele>
        <time>2007-05-09T07:36:50Z</time>
      </trkpt>
      <trkpt lat="36.34776" lon="-5.421842">
        <ele>19.936</ele>
        <time>2007-05-09T07:37:00Z</time>
      </trkpt>
      <trkpt lat="36.347548" lon="-5.421488">
        <ele>19.173</ele>
        <time>2007-05-09T07:37:33Z</time>
      </trkpt>
      <trkpt lat="36.347192" lon="-5.421437">
        <ele>18.891</ele>
        <time>2007-05-09T07:38:48Z</time>
      </trkpt>
      <trkpt lat="36.333594" lon="-5.410505">
        <ele>17.353</ele>
        <time>2007-05-09T07:39:46Z</time>
      </trkpt>
      <trkpt lat="36.332765" lon="-5.409787">
        <ele>17.222</ele>
        <time>2007-05-09T07:40:08Z</time>
      </trkpt>
      <trkpt lat="36.33236" lon="-5.409256">
        <ele>18.336</ele>
        <time>2007-05-09T07:40:22Z</time>
      </trkpt>
      <trkpt lat="36.331858" lon="-5.408282">
        <ele>16.37</ele>
        <time>2007-05-09T07:41:03Z</time>
      </trkpt>
      <trkpt lat="36.331434" lon="-5.408495">
        <ele>15.513</ele>
        <time>2007-05-09T07:41:38Z</time>
      </trkpt>
      <trkpt lat="36.330513" lon="-5.409941">
        <ele>14.121</ele>
        <time>2007-05-09T07:41:49Z</time>
      </trkpt>
      <trkpt lat="36.330191" lon="-5.410146">
        <ele>15.674</ele>
        <time>2007-05-09T07:42:28Z</time>
      </trkpt>
      <trkpt lat="36.329589" lon="-5.411915">
        <ele>18.014</ele>
        <time>2007-05-09T07:42:48Z</time>
      </trkpt>
      <trkpt lat="36.329573" lon="-5.412231">
        <ele>18.595</ele>
        <time>2007-05-09T07:43:22Z</time>
      </trkpt>
      <trkpt lat="36.330389" lon="-5.415951">
        <ele>23.03</ele>
        <time>2007-05-09T07:43:37Z</time>
      </trkpt>
      <trkpt lat="36.330519" lon="-5.416285">
        <ele>21.312</ele>
        <time>2007-05-09T07:43:56Z</time>
      </trkpt>
      <trkpt lat="36.330919" lon="-5.416748">
        <ele>19.984</ele>
        <time>2007-05-09T07:44:38Z</time>
      </trkpt>
      <trkpt lat="36.331908" lon="-5.418067">
        <ele>19.219</ele>
        <time>2007-05-09T07:45:00Z</time>
      </trkpt>
      <trkpt lat="36.332270" lon="-5.418448">
        <ele>20.413</ele>
        <time>2007-05-09T07:45:13Z</time>
      </trkpt>
      <trkpt lat="36.336918" lon="-5.420399">
        <ele>21.478</ele>
        <time>2007-05-09T07:45:41Z</time>
      </trkpt>
      <trkpt lat="36.33735" lon="-5.420639">
        <ele>20.38</ele>
        <time>2007-05-09T07:47:40Z</time>
      </trkpt>
      <trkpt lat="36.337486" lon="-5.420816">
        <ele>20.038</ele>
        <time>2007-05-09T07:47:51Z</time>
      </trkpt>
      <trkpt lat="36.33744" lon="-5.423947">
        <ele>21.76</ele>
        <time>2007-05-09T07:48:04Z</time>
      </trkpt>
      <trkpt lat="36.33784" lon="-5.425014">
        <ele>21.625</ele>
        <time>2007-05-09T07:48:18Z</time>
      </trkpt>
      <trkpt lat="36.337833" lon="-5.425381">
        <ele>23.372</ele>
        <time>2007-05-09T07:48:43Z</time>
      </trkpt>
      <trkpt lat="36.33713" lon="-5.427121">
        <ele>27.122</ele>
        <time>2007-05-09T07:49:20Z</time>
      </trkpt>
      <trkpt lat="36.335976" lon="-5.428303">
        <ele>24.596</ele>
        <time>2007-05-09T07:49:57Z</time>
      </trkpt>
      <trkpt lat="36.335936" lon="-5.428547">
        <ele>24.346</ele>
        <time>2007-05-09T07:50:14Z</time>
      </trkpt>
      <trkpt lat="36.33671" lon="-5.430874">
        <ele>25.844</ele>
        <time>2007-05-09T07:50:54Z</time>
      </trkpt>
      <trkpt lat="36.336556" lon="-5.43262">
        <ele>28.489</ele>
        <time>2007-05-09T07:51:05Z</time>
      </trkpt>
      <trkpt lat="36.336649" lon="-5.432854">
        <ele>29.612</ele>
        <time>2007-05-09T07:51:29Z</time>
      </trkpt>
      <trkpt lat="36.337746" lon="-5.433684">
        <ele>33.669</ele>
        <time>2007-05-09T07:52:07Z</time>
      </trkpt>
      <trkpt lat="36.338035" lon="-5.434062">
        <ele>31.342</ele>
        <time>2007-05-09T07:52:41Z</time>
      </trkpt>
      <trkpt lat="36.338205" lon="-5.434907">
        <ele>29.924</ele>
        <time>2007-05-09T07:53:02Z</time>
      </trkpt>
      <trkpt lat="36.338157" lon="-5.435112">
        <ele>30.929</ele>
        <time>2007-05-09T07:53:25Z</time>
      </trkpt>
      <trkpt lat="36.337681" lon="-5.435436">
        <ele>36.589</ele>
        <time>2007-05-09T07:53:32Z</time>
      </trkpt>
      <trkpt lat="36.33722" lon="-5.43646">
        <ele>44.758</ele>
        <time>2007-05-09T07:53:50Z</time>
      </trkpt>
      <trkpt lat="36.336472" lon="-5.437335">
        <ele>46.116</ele>
        <time>2007-05-09T07:54:30Z</time>
      </trkpt>
      <trkpt lat="36.336112" lon="-5.437997">
        <ele>51.17499999999999</ele>
        <time>2007-05-09T07:54:47Z</time>
      </trkpt>
      <trkpt lat="36.335668" lon="-5.438395">
        <ele>49.301</ele>
        <time>2007-05-09T07:55:08Z</time>
      </trkpt>
      <trkpt lat="36.335015" lon="-5.438789">
        <ele>50.246</ele>
        <time>2007-05-09T07:55:29Z</time>
      </trkpt>
      <trkpt lat="36.33433" lon="-5.43897">
        <ele>51.756</ele>
        <time>2007-05-09T07:56:02Z</time>
      </trkpt>
      <trkpt lat="36.334105" lon="-5.439311">
        <ele>53.999</ele>
        <time>2007-05-09T07:56:23Z</time>
      </trkpt>
      <trkpt lat="36.333947" lon="-5.439926">
        <ele>58.886</ele>
        <time>2007-05-09T07:56:49Z</time>
      </trkpt>
      <trkpt lat="36.33356" lon="-5.440496">
        <ele>62.39600000000001</ele>
        <time>2007-05-09T07:57:46Z</time>
      </trkpt>
      <trkpt lat="36.333494" lon="-5.441149">
        <ele>65.851</ele>
        <time>2007-05-09T07:58:07Z</time>
      </trkpt>
      <trkpt lat="36.333377" lon="-5.441346">
        <ele>66.848</ele>
        <time>2007-05-09T07:58:34Z</time>
      </trkpt>
      <trkpt lat="36.332651" lon="-5.441642">
        <ele>71.279</ele>
        <time>2007-05-09T07:59:17Z</time>
      </trkpt>
      <trkpt lat="36.332565" lon="-5.442453">
        <ele>76.622</ele>
        <time>2007-05-09T07:59:37Z</time>
      </trkpt>
      <trkpt lat="36.331523" lon="-5.444106">
        <ele>95.536</ele>
        <time>2007-05-09T08:00:29Z</time>
      </trkpt>
      <trkpt lat="36.331363" lon="-5.44409">
        <ele>94.81699999999999</ele>
        <time>2007-05-09T08:00:46Z</time>
      </trkpt>
      <trkpt lat="36.331266" lon="-5.443408">
        <ele>91.303</ele>
        <time>2007-05-09T08:00:53Z</time>
      </trkpt>
      <trkpt lat="36.33087" lon="-5.443490">
        <ele>93.054</ele>
        <time>2007-05-09T08:01:09Z</time>
      </trkpt>
      <trkpt lat="36.330808" lon="-5.443684">
        <ele>94.54900000000001</ele>
        <time>2007-05-09T08:01:20Z</time>
      </trkpt>
      <trkpt lat="36.330709" lon="-5.447392">
        <ele>122.88</ele>
        <time>2007-05-09T08:01:50Z</time>
      </trkpt>
      <trkpt lat="36.330777" lon="-5.447635">
        <ele>125.265</ele>
        <time>2007-05-09T08:01:58Z</time>
      </trkpt>
      <trkpt lat="36.331309" lon="-5.447908">
        <ele>135.077</ele>
        <time>2007-05-09T08:02:45Z</time>
      </trkpt>
      <trkpt lat="36.331446" lon="-5.447531">
        <ele>134.568</ele>
        <time>2007-05-09T08:03:50Z</time>
      </trkpt>
      <trkpt lat="36.331608" lon="-5.447385">
        <ele>135.511</ele>
        <time>2007-05-09T08:04:20Z</time>
      </trkpt>
      <trkpt lat="36.33204" lon="-5.447384">
        <ele>141.87</ele>
        <time>2007-05-09T08:04:32Z</time>
      </trkpt>
      <trkpt lat="36.332099" lon="-5.447573">
        <ele>146.16</ele>
        <time>2007-05-09T08:04:42Z</time>
      </trkpt>
      <trkpt lat="36.331757" lon="-5.447794">
        <ele>143.437</ele>
        <time>2007-05-09T08:04:57Z</time>
      </trkpt>
      <trkpt lat="36.331743" lon="-5.448155">
        <ele>145.374</ele>
        <time>2007-05-09T08:05:05Z</time>
      </trkpt>
      <trkpt lat="36.332096" lon="-5.448619">
        <ele>151.76</ele>
        <time>2007-05-09T08:05:12Z</time>
      </trkpt>
      <trkpt lat="36.332462" lon="-5.448788">
        <ele>158.818</ele>
        <time>2007-05-09T08:05:34Z</time>
      </trkpt>
      <trkpt lat="36.332541" lon="-5.449396">
        <ele>156.938</ele>
        <time>2007-05-09T08:06:19Z</time>
      </trkpt>
      <trkpt lat="36.333618" lon="-5.450552">
        <ele>170.026</ele>
        <time>2007-05-09T08:06:34Z</time>
      </trkpt>
      <trkpt lat="36.333593" lon="-5.450776">
        <ele>171.093</ele>
        <time>2007-05-09T08:06:48Z</time>
      </trkpt>
      <trkpt lat="36.333213" lon="-5.450763">
        <ele>175.778</ele>
        <time>2007-05-09T08:07:15Z</time>
      </trkpt>
      <trkpt lat="36.333012" lon="-5.450947">
        <ele>180.267</ele>
        <time>2007-05-09T08:07:28Z</time>
      </trkpt>
      <trkpt lat="36.33269" lon="-5.450838">
        <ele>180.681</ele>
        <time>2007-05-09T08:07:54Z</time>
      </trkpt>
      <trkpt lat="36.332574" lon="-5.450881">
        <ele>183.698</ele>
        <time>2007-05-09T08:08:15Z</time>
      </trkpt>
      <trkpt lat="36.332237" lon="-5.450768">
        <ele>183.313</ele>
        <time>2007-05-09T08:08:24Z</time>
      </trkpt>
      <trkpt lat="36.33199" lon="-5.450327">
        <ele>172.375</ele>
        <time>2007-05-09T08:08:51Z</time>
      </trkpt>
      <trkpt lat="36.331784" lon="-5.450307">
        <ele>171.037</ele>
        <time>2007-05-09T08:09:08Z</time>
      </trkpt>
      <trkpt lat="36.331532" lon="-5.450824">
        <ele>180.31</ele>
        <time>2007-05-09T08:09:14Z</time>
      </trkpt>
      <trkpt lat="36.331044" lon="-5.45093">
        <ele>182.143</ele>
        <time>2007-05-09T08:09:30Z</time>
      </trkpt>
      <trkpt lat="36.330757" lon="-5.451142">
        <ele>185.843</ele>
        <time>2007-05-09T08:09:39Z</time>
      </trkpt>
      <trkpt lat="36.330462" lon="-5.451163">
        <ele>184.942</ele>
        <time>2007-05-09T08:10:12Z</time>
      </trkpt>
      <trkpt lat="36.330305" lon="-5.450912">
        <ele>182.052</ele>
        <time>2007-05-09T08:11:00Z</time>
      </trkpt>
      <trkpt lat="36.33018" lon="-5.450805">
        <ele>180.888</ele>
        <time>2007-05-09T08:11:59Z</time>
      </trkpt>
      <trkpt lat="36.328524" lon="-5.451414">
        <ele>196.661</ele>
        <time>2007-05-09T08:12:11Z</time>
      </trkpt>
      <trkpt lat="36.328034" lon="-5.451477">
        <ele>201.905</ele>
        <time>2007-05-09T08:12:34Z</time>
      </trkpt>
      <trkpt lat="36.3272" lon="-5.4511">
        <ele>208.04</ele>
        <time>2007-05-09T08:13:18Z</time>
      </trkpt>
      <trkpt lat="36.326932" lon="-5.451102">
        <ele>211.73</ele>
        <time>2007-05-09T08:14:35Z</time>
      </trkpt>
      <trkpt lat="36.326341" lon="-5.451642">
        <ele>209.369</ele>
        <time>2007-05-09T08:15:09Z</time>
      </trkpt>
      <trkpt lat="36.326187" lon="-5.451879">
        <ele>209.804</ele>
        <time>2007-05-09T08:15:38Z</time>
      </trkpt>
      <trkpt lat="36.325662" lon="-5.452408">
        <ele>213.39</ele>
        <time>2007-05-09T08:15:56Z</time>
      </trkpt>
      <trkpt lat="36.325421" lon="-5.45243">
        <ele>213.244</ele>
        <time>2007-05-09T08:16:19Z</time>
      </trkpt>
      <trkpt lat="36.323972" lon="-5.451429">
        <ele>218.713</ele>
        <time>2007-05-09T08:16:38Z</time>
      </trkpt>
      <trkpt lat="36.32366" lon="-5.45148">
        <ele>217.672</ele>
        <time>2007-05-09T08:16:47Z</time>
      </trkpt>
      <trkpt lat="36.322761" lon="-5.452274">
        <ele>229.54</ele>
        <time>2007-05-09T08:17:33Z</time>
      </trkpt>
      <trkpt lat="36.321011" lon="-5.452293">
        <ele>234.447</ele>
        <time>2007-05-09T08:17:57Z</time>
      </trkpt>
      <trkpt lat="36.320502" lon="-5.452433">
        <ele>234.777</ele>
        <time>2007-05-09T08:18:13Z</time>
      </trkpt>
      <trkpt lat="36.320111" lon="-5.452714">
        <ele>235.723</ele>
        <time>2007-05-09T08:19:01Z</time>
      </trkpt>
      <trkpt lat="36.318979" lon="-5.452403">
        <ele>238.693</ele>
        <time>2007-05-09T08:20:07Z</time>
      </trkpt>
    </trkseg>
  </trk>
</gpx>
